Data for 07/24/2010

Time Sea-Level Adjusted Pressure Absolute Pressure Temperature Relative Humidity Dew Point Precipitation   
(mb) (inHg) (mb) (inHg) (C) (F) (%) (C) (F) (mm) (in)
00:01 1024 30.24 854 25.22 13.6 56.4 63 6.7 44 13.91 0.548
00:02 1024 30.24 854 25.22 13.6 56.4 63 6.8 44.2 13.89 0.547
00:03 1024 30.24 854 25.22 13.6 56.4 63 6.7 44.1 13.87 0.546
00:04 1024 30.24 854 25.22 13.5 56.3 63 6.6 43.8 13.86 0.546
00:05 1024 30.24 854 25.22 13.5 56.4 62 6.5 43.8 13.89 0.547
00:06 1024 30.24 854 25.22 13.6 56.4 63 6.6 44 13.93 0.548
00:07 1024 30.24 854 25.22 13.6 56.4 63 6.7 44.1 13.93 0.548
00:08 1024 30.24 854 25.22 13.6 56.4 63 6.8 44.2 13.89 0.547
00:09 1024 30.24 854 25.22 13.5 56.3 63 6.6 44 13.84 0.545
00:10 1024 30.24 854 25.22 13.5 56.4 63 6.7 44.1 13.89 0.547
00:11 1024 30.24 854 25.22 13.6 56.4 63 6.8 44.2 13.9 0.547
00:12 1024 30.24 854 25.22 13.6 56.4 63 6.6 43.9 13.96 0.55
00:13 1024 30.24 854 25.22 13.7 56.6 63 6.7 44.1 13.98 0.55
00:14 1024 30.24 854 25.22 13.6 56.5 63 6.7 44.1 13.98 0.55
00:15 1024 30.24 854 25.22 13.7 56.7 62 6.6 43.9 14.18 0.558
00:16 1024 30.24 854 25.22 13.9 56.9 62 6.8 44.3 14.22 0.56
00:17 1024 30.24 854 25.22 13.9 57 62 6.8 44.2 14.23 0.56
00:18 1024 30.24 854 25.22 13.9 57 63 6.9 44.5 14.29 0.563
00:19 1024 30.24 854 25.22 13.9 57 62 6.8 44.3 14.32 0.564
00:20 1024 30.24 854 25.22 14.1 57.4 61 6.7 44 14.53 0.572
00:21 1024 30.24 854 25.22 14.4 57.8 60 6.8 44.2 14.8 0.583
00:22 1024 30.24 854 25.22 14.5 58 60 6.9 44.4 14.86 0.585
00:23 1024 30.24 854 25.22 14.5 58.1 60 6.9 44.4 14.92 0.587
00:24 1024 30.24 854 25.22 14.6 58.3 60 7 44.6 14.89 0.586
00:25 1024 30.24 854 25.22 14.5 58.2 60 7 44.6 14.85 0.585
00:26 1024 30.24 854 25.22 14.5 58 60 6.9 44.5 14.83 0.584
00:27 1024 30.24 854 25.22 14.5 58 60 6.9 44.5 14.81 0.583
00:28 1024 30.24 854 25.22 14.4 58 61 7 44.5 14.82 0.583
00:29 1024 30.24 854 25.22 14.5 58.1 60 6.9 44.5 14.84 0.584
00:30 1024 30.24 854 25.22 14.5 58 61 7 44.6 14.85 0.585
00:31 1024 30.24 854 25.22 14.4 58 61 7 44.6 14.75 0.581
00:32 1024 30.24 854 25.22 14.4 57.9 61 6.9 44.4 14.76 0.581
00:33 1024 30.24 854 25.22 14.4 57.9 61 6.9 44.5 14.82 0.583
00:34 1024 30.24 854 25.22 14.4 57.9 61 7 44.7 14.76 0.581
00:35 1024 30.24 854 25.22 14.3 57.8 61 7.1 44.7 14.7 0.579
00:36 1024 30.24 854 25.22 14.2 57.6 62 7.2 44.9 14.57 0.574
00:37 1024 30.24 854 25.22 14.1 57.3 63 7.1 44.8 14.45 0.569
00:38 1025 30.27 854 25.22 13.9 57 64 7.2 45 14.29 0.563
00:39 1025 30.27 854 25.22 13.7 56.7 65 7.2 45 14.11 0.556
00:40 1025 30.27 854 25.22 13.6 56.4 65 7.2 44.9 14 0.551
00:41 1025 30.27 854 25.22 13.5 56.2 65 7.2 44.9 13.85 0.545
00:42 1025 30.27 854 25.22 13.3 55.9 66 7 44.6 13.7 0.539
00:43 1025 30.27 854 25.22 13.1 55.6 66 7 44.6 13.53 0.533
00:44 1025 30.27 854 25.22 13 55.4 66 6.9 44.4 13.44 0.529
00:45 1025 30.27 854 25.22 12.9 55.3 67 7 44.5 13.36 0.526
00:46 1025 30.27 854 25.22 12.9 55.2 67 7 44.7 13.29 0.523
00:47 1025 30.27 854 25.22 12.9 55.2 67 7 44.6 13.31 0.524
00:48 1025 30.27 854 25.22 13 55.3 67 7.1 44.7 13.36 0.526
00:49 1025 30.27 854 25.22 13 55.4 67 7.1 44.7 13.38 0.527
00:50 1025 30.27 854 25.22 13 55.4 67 7.1 44.7 13.35 0.526
00:51 1025 30.27 854 25.22 13 55.4 67 7.1 44.8 13.35 0.526
00:52 1025 30.27 854 25.22 13 55.5 67 7.1 44.7 13.38 0.527
00:53 1025 30.27 854 25.22 13 55.4 67 7 44.7 13.37 0.526
00:54 1025 30.27 854 25.22 13.1 55.5 66 6.9 44.5 13.45 0.53
00:55 1025 30.27 854 25.22 13.2 55.7 66 7 44.6 13.55 0.533
00:56 1025 30.27 854 25.22 13.2 55.8 65 6.9 44.5 13.58 0.535
00:57 1025 30.27 854 25.22 13.3 56 64 6.8 44.3 13.71 0.54
00:58 1025 30.27 854 25.22 13.5 56.3 64 6.9 44.4 13.9 0.547
00:59 1024 30.24 854 25.22 13.6 56.4 63 6.8 44.3 13.99 0.551
01:00 1024 30.24 854 25.22 13.7 56.7 63 6.9 44.5 14.13 0.556
01:01 1024 30.24 854 25.22 13.8 56.9 63 6.9 44.5 14.24 0.561
01:02 1024 30.24 854 25.22 13.9 57 63 6.9 44.4 14.22 0.56
01:03 1024 30.24 854 25.22 13.9 57.1 62 6.8 44.2 14.36 0.565
01:04 1024 30.24 854 25.22 14.1 57.4 62 6.9 44.4 14.52 0.572
01:05 1025 30.27 854 25.22 14.3 57.7 61 7 44.5 14.58 0.574
01:06 1025 30.27 854 25.22 14.3 57.7 61 6.9 44.4 14.69 0.578
01:07 1025 30.27 854 25.22 14.4 57.9 60 6.9 44.4 14.8 0.583
01:08 1025 30.27 854 25.22 14.5 58 60 6.9 44.4 14.84 0.584
01:09 1025 30.27 854 25.22 14.5 58 60 6.9 44.5 14.81 0.583
01:10 1025 30.27 854 25.22 14.4 57.9 61 7 44.6 14.72 0.58
01:11 1025 30.27 854 25.22 14.3 57.8 61 7 44.6 14.67 0.578
01:12 1025 30.27 854 25.22 14.3 57.7 61 7 44.6 14.64 0.576
01:13 1025 30.27 854 25.22 14.3 57.7 61 6.9 44.4 14.64 0.576
01:14 1025 30.27 854 25.22 14.3 57.7 61 6.9 44.5 14.68 0.578
01:15 1025 30.27 854 25.22 14.3 57.8 61 6.9 44.4 14.71 0.579
01:16 1025 30.27 854 25.22 14.3 57.8 61 7.1 44.7 14.7 0.579
01:17 1025 30.27 854 25.22 14.2 57.6 62 7 44.7 14.56 0.573
01:18 1025 30.27 854 25.22 14.1 57.4 62 7 44.7 14.45 0.569
01:19 1025 30.27 854 25.22 14 57.3 62 7 44.7 14.39 0.567
01:20 1025 30.27 854 25.22 14 57.3 62 6.9 44.5 14.39 0.567
01:21 1025 30.27 854 25.22 14 57.2 62 7 44.6 14.43 0.568
01:22 1025 30.27 854 25.22 14 57.3 62 6.9 44.4 14.44 0.569
01:23 1025 30.27 854 25.22 14.1 57.3 62 6.9 44.4 14.44 0.569
01:24 1025 30.27 854 25.22 14.1 57.4 62 7 44.5 14.47 0.57
01:25 1025 30.27 854 25.22 14.1 57.3 62 7 44.5 14.47 0.57
01:26 1025 30.27 854 25.22 14.1 57.4 61 6.9 44.4 14.54 0.572
01:27 1025 30.27 854 25.22 14.2 57.5 61 6.9 44.4 14.56 0.573
01:28 1025 30.27 854 25.22 14.2 57.6 61 6.9 44.5 14.63 0.576
01:29 1025 30.27 854 25.22 14.3 57.7 61 6.9 44.4 14.67 0.578
01:30 1025 30.27 854 25.22 14.3 57.7 61 7 44.6 14.69 0.578
01:31 1025 30.27 854 25.22 14.3 57.8 61 7.1 44.7 14.66 0.577
01:32 1025 30.27 854 25.22 14.3 57.7 61 7 44.5 14.62 0.576
01:33 1025 30.27 854 25.22 14.3 57.8 62 7.1 44.8 14.69 0.578
01:34 1025 30.27 854 25.22 14.3 57.8 61 7 44.6 14.66 0.577
01:35 1025 30.27 854 25.22 14.3 57.8 61 6.9 44.5 14.72 0.58
01:36 1025 30.27 854 25.22 14.4 57.9 61 6.9 44.5 14.71 0.579
01:37 1025 30.27 854 25.22 14.4 57.9 60 6.9 44.4 14.78 0.582
01:38 1025 30.27 854 25.22 14.4 58 61 7 44.5 14.78 0.582
01:39 1025 30.27 854 25.22 14.4 57.9 61 6.9 44.5 14.78 0.582
01:40 1025 30.27 854 25.22 14.5 58 60 6.9 44.5 14.83 0.584
01:41 1025 30.27 854 25.22 14.5 58.1 60 6.9 44.3 14.89 0.586
01:42 1025 30.27 854 25.22 14.6 58.2 60 6.9 44.4 14.97 0.589
01:43 1025 30.27 854 25.22 14.6 58.2 60 7 44.6 14.92 0.587
01:44 1025 30.27 854 25.22 14.5 58.1 60 7 44.5 14.89 0.586
01:45 1025 30.27 854 25.22 14.5 58.2 60 7 44.5 14.89 0.586
01:46 1025 30.27 854 25.22 14.5 58.1 60 6.9 44.4 14.89 0.586
01:47 1025 30.27 854 25.22 14.5 58.1 60 6.9 44.5 14.91 0.587
01:48 1025 30.27 854 25.22 14.6 58.2 60 7 44.7 14.94 0.588
01:49 1025 30.27 854 25.22 14.6 58.2 60 7 44.5 14.91 0.587
01:50 1025 30.27 854 25.22 14.6 58.3 60 7 44.5 15.01 0.591
01:51 1025 30.27 854 25.22 14.6 58.3 60 7 44.6 15.01 0.591
01:52 1025 30.27 854 25.22 14.7 58.4 60 7 44.6 15.06 0.593
01:53 1025 30.27 854 25.22 14.7 58.5 59 6.9 44.3 15.08 0.594
01:54 1025 30.27 854 25.22 14.8 58.6 59 6.9 44.4 15.1 0.594
01:55 1025 30.27 854 25.22 14.8 58.6 59 6.9 44.4 15.13 0.596
01:56 1025 30.27 854 25.22 14.8 58.6 59 6.9 44.4 15.13 0.596
01:57 1025 30.27 854 25.22 14.8 58.6 59 6.9 44.5 15.1 0.594
01:58 1025 30.27 854 25.22 14.7 58.5 59 6.9 44.4 15.14 0.596
01:59 1025 30.27 854 25.22 14.8 58.6 59 6.9 44.4 15.13 0.596
02:00 1025 30.27 854 25.22 14.7 58.5 59 6.8 44.3 15.11 0.595
02:01 1025 30.27 854 25.22 14.8 58.6 59 6.9 44.4 15.14 0.596
02:02 1025 30.27 854 25.22 14.7 58.5 59 6.9 44.4 15.1 0.594
02:03 1025 30.27 854 25.22 14.7 58.5 59 6.9 44.4 15.1 0.594
02:04 1025 30.27 854 25.22 14.7 58.5 59 6.9 44.4 15.08 0.594
02:05 1025 30.27 854 25.22 14.7 58.4 59 6.9 44.4 15.06 0.593
02:06 1025 30.27 854 25.22 14.7 58.4 59 6.9 44.4 15.02 0.591
02:07 1025 30.27 854 25.22 14.6 58.3 59 6.8 44.3 15 0.591
02:08 1025 30.27 854 25.22 14.6 58.3 60 7 44.6 14.97 0.589
02:09 1025 30.27 854 25.22 14.5 58.1 60 7 44.6 14.91 0.587
02:10 1025 30.27 854 25.22 14.4 57.9 61 7 44.7 14.74 0.58
02:11 1025 30.27 854 25.22 14.3 57.7 61 7 44.6 14.61 0.575
02:12 1025 30.27 854 25.22 14.2 57.5 61 6.9 44.5 14.6 0.575
02:13 1025 30.27 854 25.22 14.2 57.5 61 6.8 44.3 14.53 0.572
02:14 1025 30.27 854 25.22 14.2 57.6 61 6.9 44.4 14.57 0.574
02:15 1025 30.27 854 25.22 14.2 57.6 61 6.9 44.3 14.59 0.574
02:16 1025 30.27 854 25.22 14.2 57.5 62 7 44.6 14.57 0.574
02:17 1025 30.27 854 25.22 14.2 57.5 61 6.9 44.4 14.51 0.571
02:18 1025 30.27 854 25.22 14.1 57.4 61 6.9 44.4 14.46 0.569
02:19 1025 30.27 854 25.22 14 57.3 61 6.8 44.3 14.49 0.57
02:20 1025 30.27 854 25.22 14 57.3 62 7 44.6 14.39 0.567
02:21 1025 30.27 854 25.22 14 57.1 62 6.9 44.4 14.31 0.563
02:22 1025 30.27 854 25.22 14 57.2 62 6.9 44.5 14.39 0.567
02:23 1025 30.27 854 25.22 14 57.2 61 6.7 44.1 14.39 0.567
02:24 1025 30.27 854 25.22 14 57.2 62 6.9 44.4 14.43 0.568
02:25 1025 30.27 854 25.22 14 57.1 62 6.9 44.4 14.31 0.563
02:26 1025 30.27 854 25.22 13.9 57 62 6.8 44.2 14.26 0.561
02:27 1025 30.27 854 25.22 13.9 57 62 6.8 44.2 14.3 0.563
02:28 1025 30.27 854 25.22 13.9 57.1 62 6.8 44.2 14.33 0.564
02:29 1025 30.27 854 25.22 14 57.1 61 6.7 44.1 14.39 0.567
02:30 1025 30.27 854 25.22 14.1 57.3 61 6.8 44.3 14.44 0.569
02:31 1025 30.27 854 25.22 14.1 57.3 61 6.8 44.2 14.45 0.569
02:32 1025 30.27 854 25.22 14.1 57.4 61 6.7 44.1 14.46 0.569
02:33 1025 30.27 854 25.22 14.2 57.6 60 6.7 44.1 14.56 0.573
02:34 1025 30.27 854 25.22 14.2 57.6 61 6.8 44.2 14.57 0.574
02:35 1025 30.27 854 25.22 14.2 57.5 61 6.7 44.1 14.56 0.573
02:36 1025 30.27 854 25.22 14.1 57.5 61 6.7 44.1 14.52 0.572
02:37 1025 30.27 854 25.22 14.1 57.5 61 6.8 44.2 14.5 0.571
02:38 1025 30.27 854 25.22 14.1 57.4 61 6.7 44 14.48 0.57
02:39 1025 30.27 854 25.22 14.2 57.5 60 6.6 43.8 14.57 0.574
02:40 1025 30.27 854 25.22 14.2 57.5 60 6.7 44 14.57 0.574
02:41 1025 30.27 854 25.22 14.2 57.5 60 6.7 44 14.55 0.573
02:42 1025 30.27 854 25.22 14.2 57.5 61 6.9 44.4 14.52 0.572
02:43 1025 30.27 854 25.22 14 57.3 61 6.8 44.3 14.35 0.565
02:44 1025 30.27 854 25.22 13.9 57.1 61 6.7 44 14.29 0.563
02:45 1025 30.27 854 25.22 13.9 57.1 61 6.6 43.9 14.29 0.563
02:46 1025 30.27 854 25.22 13.9 57 61 6.5 43.8 14.33 0.564
02:47 1025 30.27 854 25.22 13.9 57.1 61 6.7 44 14.33 0.564
02:48 1025 30.27 854 25.22 13.9 57 62 6.7 44.1 14.24 0.561
02:49 1025 30.27 854 25.22 13.8 56.9 62 6.7 44 14.17 0.558
02:50 1025 30.27 854 25.22 13.8 56.8 62 6.7 44 14.17 0.558
02:51 1025 30.27 854 25.22 13.7 56.7 62 6.7 44.1 14.06 0.554
02:52 1025 30.27 854 25.22 13.7 56.6 62 6.6 43.9 14.04 0.553
02:53 1025 30.27 854 25.22 13.7 56.7 62 6.6 44 14.04 0.553
02:54 1025 30.27 854 25.22 13.7 56.6 62 6.6 44 14.05 0.553
02:55 1025 30.27 854 25.22 13.6 56.5 62 6.6 43.9 14 0.551
02:56 1025 30.27 854 25.22 13.6 56.5 62 6.5 43.8 14 0.551
02:57 1025 30.27 854 25.22 13.6 56.5 62 6.6 43.9 14.02 0.552
02:58 1025 30.27 854 25.22 13.6 56.5 62 6.6 43.9 13.99 0.551
02:59 1025 30.27 854 25.22 13.6 56.5 63 6.7 44 14 0.551
03:00 1025 30.27 854 25.22 13.6 56.4 63 6.7 44.1 13.89 0.547
03:01 1025 30.27 854 25.22 13.5 56.3 63 6.7 44 13.86 0.546
03:02 1025 30.27 854 25.22 13.4 56.2 63 6.5 43.8 13.82 0.544
03:03 1025 30.27 854 25.22 13.5 56.2 63 6.7 44 13.81 0.544
03:04 1025 30.27 854 25.22 13.4 56.1 63 6.6 43.9 13.75 0.541
03:05 1025 30.27 854 25.22 13.4 56 63 6.5 43.7 13.71 0.54
03:06 1025 30.27 854 25.22 13.4 56.1 63 6.5 43.8 13.76 0.542
03:07 1025 30.27 854 25.22 13.4 56.1 63 6.5 43.7 13.78 0.543
03:08 1025 30.27 854 25.22 13.4 56.2 63 6.5 43.8 13.79 0.543
03:09 1025 30.27 854 25.22 13.4 56.2 63 6.5 43.8 13.78 0.543
03:10 1025 30.27 854 25.22 13.4 56 63 6.5 43.8 13.75 0.541
03:11 1025 30.27 854 25.22 13.3 56 63 6.6 43.8 13.68 0.539
03:12 1025 30.27 854 25.22 13.3 55.9 63 6.4 43.6 13.72 0.54
03:13 1025 30.27 854 25.22 13.3 55.9 63 6.6 43.8 13.63 0.537
03:14 1025 30.27 854 25.22 13.2 55.8 64 6.5 43.7 13.58 0.535
03:15 1025 30.27 854 25.22 13.2 55.7 64 6.5 43.7 13.56 0.534
03:16 1025 30.27 854 25.22 13.2 55.8 64 6.5 43.7 13.62 0.536
03:17 1025 30.27 854 25.22 13.3 55.9 63 6.5 43.7 13.65 0.537
03:18 1025 30.27 854 25.22 13.3 55.9 63 6.5 43.6 13.66 0.538
03:19 1025 30.27 854 25.22 13.3 56 63 6.5 43.8 13.66 0.538
03:20 1025 30.27 854 25.22 13.3 56 63 6.5 43.6 13.66 0.538
03:21 1025 30.27 854 25.22 13.4 56.1 63 6.5 43.7 13.79 0.543
03:22 1025 30.27 854 25.22 13.4 56 63 6.5 43.7 13.73 0.541
03:23 1025 30.27 854 25.22 13.3 56 63 6.5 43.7 13.68 0.539
03:24 1025 30.27 854 25.22 13.3 55.9 63 6.4 43.6 13.66 0.538
03:25 1025 30.27 854 25.22 13.3 56 63 6.4 43.6 13.68 0.539
03:26 1025 30.27 854 25.22 13.4 56 63 6.5 43.7 13.71 0.54
03:27 1025 30.27 854 25.22 13.3 56 63 6.5 43.7 13.65 0.537
03:28 1025 30.27 854 25.22 13.3 55.9 64 6.5 43.8 13.59 0.535
03:29 1025 30.27 854 25.22 13.2 55.8 64 6.5 43.8 13.58 0.535
03:30 1025 30.27 854 25.22 13.2 55.7 64 6.6 43.9 13.51 0.532
03:31 1025 30.27 854 25.22 13.1 55.5 64 6.6 43.8 13.41 0.528
03:32 1025 30.27 854 25.22 13 55.4 64 6.5 43.7 13.4 0.528
03:33 1025 30.27 854 25.22 13 55.4 64 6.5 43.7 13.4 0.528
03:34 1025 30.27 854 25.22 13 55.4 64 6.5 43.7 13.4 0.528
03:35 1025 30.27 854 25.22 13 55.3 65 6.5 43.7 13.31 0.524
03:36 1025 30.27 854 25.22 12.9 55.3 65 6.6 43.8 13.26 0.522
03:37 1025 30.27 854 25.22 12.8 55.1 65 6.5 43.6 13.18 0.519
03:38 1025 30.27 854 25.22 12.8 55.1 65 6.4 43.6 13.25 0.522
03:39 1025 30.27 854 25.22 12.9 55.2 65 6.5 43.8 13.27 0.522
03:40 1025 30.27 854 25.22 12.8 55.1 65 6.5 43.7 13.19 0.519
03:41 1025 30.27 854 25.22 12.8 55 66 6.6 44 13.11 0.516
03:42 1025 30.27 854 25.22 12.5 54.4 68 6.8 44.2 12.89 0.507
03:43 1025 30.27 854 25.22 12.1 53.8 69 6.7 44.1 12.57 0.495
03:44 1025 30.27 854 25.22 11.8 53.2 71 6.6 43.9 12.26 0.483
03:45 1025 30.27 854 25.22 11.5 52.8 71 6.6 43.8 12 0.472
03:46 1025 30.27 854 25.22 11.4 52.5 72 6.5 43.7 11.88 0.468
03:47 1025 30.27 854 25.22 11.4 52.4 72 6.5 43.7 11.8 0.465
03:48 1025 30.27 854 25.22 11.3 52.3 72 6.5 43.7 11.68 0.46
03:49 1025 30.27 854 25.22 11.2 52.2 72 6.5 43.6 11.6 0.457
03:50 1025 30.27 854 25.22 11.1 52 73 6.5 43.6 11.5 0.453
03:51 1025 30.27 854 25.22 11.1 51.9 73 6.4 43.5 11.49 0.452
03:52 1025 30.27 854 25.22 11.1 51.9 73 6.4 43.6 11.45 0.451
03:53 1025 30.27 854 25.22 11 51.9 73 6.5 43.6 11.41 0.449
03:54 1025 30.27 854 25.22 11 51.7 74 6.5 43.6 11.35 0.447
03:55 1025 30.27 854 25.22 10.9 51.6 74 6.5 43.7 11.22 0.442
03:56 1025 30.27 854 25.22 10.8 51.4 74 6.4 43.6 11.1 0.437
03:57 1025 30.27 854 25.22 10.7 51.2 75 6.4 43.6 10.98 0.432
03:58 1025 30.27 854 25.22 10.6 51 75 6.4 43.6 10.96 0.431
03:59 1025 30.27 854 25.22 10.6 51.1 75 6.3 43.3 11 0.433
04:00 1025 30.27 854 25.22 10.7 51.3 74 6.3 43.3 11.14 0.439
04:01 1025 30.27 854 25.22 10.7 51.3 74 6.3 43.3 11.17 0.44
04:02 1025 30.27 854 25.22 10.8 51.5 74 6.3 43.3 11.23 0.442
04:03 1025 30.27 854 25.22 10.9 51.7 73 6.3 43.3 11.34 0.446
04:04 1025 30.27 854 25.22 11 51.8 72 6.3 43.3 11.42 0.45
04:05 1025 30.27 854 25.22 11 51.8 72 6.2 43.1 11.38 0.448
04:06 1025 30.27 854 25.22 10.8 51.4 74 6.3 43.4 11.19 0.441
04:07 1025 30.27 854 25.22 10.8 51.4 74 6.3 43.3 11.13 0.438
04:08 1025 30.27 854 25.22 10.8 51.4 73 6.1 43 11.11 0.437
04:09 1025 30.27 854 25.22 10.5 51 73 5.9 42.6 10.89 0.429
04:10 1025 30.27 854 25.22 10.1 50.1 74 5.7 42.3 10.51 0.414
04:11 1025 30.27 854 25.22 9.7 49.5 75 5.6 42.1 10.15 0.4
04:12 1025 30.27 854 25.22 9.5 49.2 76 5.6 42.1 9.97 0.393
04:13 1025 30.27 854 25.22 9.3 48.8 77 5.6 42 9.75 0.384
04:14 1025 30.27 854 25.22 9.1 48.4 78 5.5 41.9 9.52 0.375
04:15 1025 30.27 854 25.22 9 48.1 79 5.4 41.8 9.4 0.37
04:16 1025 30.27 854 25.22 8.9 48.1 79 5.5 41.9 9.33 0.367
04:17 1025 30.27 854 25.22 8.9 48.1 78 5.4 41.7 9.32 0.367
04:18 1025 30.27 854 25.22 8.9 48.1 78 5.4 41.7 9.28 0.365
04:19 1025 30.27 854 25.22 8.9 48.1 79 5.4 41.8 9.26 0.365
04:20 1025 30.27 854 25.22 8.9 48 79 5.4 41.7 9.25 0.364
04:21 1025 30.27 854 25.22 8.9 47.9 79 5.4 41.7 9.18 0.361
04:22 1025 30.27 854 25.22 8.8 47.9 79 5.4 41.7 9.13 0.359
04:23 1025 30.27 854 25.22 8.8 47.9 80 5.5 41.9 9.12 0.359
04:24 1025 30.27 854 25.22 8.8 47.8 80 5.5 41.9 9.1 0.358
04:25 1025 30.27 854 25.22 8.8 47.9 81 5.7 42.3 9.15 0.36
04:26 1025 30.27 854 25.22 9 48.1 81 5.8 42.5 9.3 0.366
04:27 1025 30.27 854 25.22 9.1 48.4 80 5.8 42.5 9.44 0.372
04:28 1025 30.27 854 25.22 9.2 48.6 79 5.8 42.4 9.51 0.374
04:29 1025 30.27 854 25.22 9.3 48.7 79 5.8 42.4 9.58 0.377
04:30 1025 30.27 854 25.22 9.3 48.7 79 5.9 42.6 9.55 0.376
04:31 1025 30.27 854 25.22 9.3 48.7 79 5.8 42.5 9.54 0.376
04:32 1025 30.27 854 25.22 9.2 48.5 78 5.6 42 9.44 0.372
04:33 1025 30.27 854 25.22 8.9 48 79 5.4 41.7 9.21 0.363
04:34 1025 30.27 854 25.22 8.7 47.6 81 5.5 42 9.02 0.355
04:35 1025 30.27 854 25.22 8.6 47.5 80 5.4 41.8 8.95 0.352
04:36 1025 30.27 854 25.22 8.5 47.3 82 5.5 42 8.85 0.348
04:37 1025 30.27 854 25.22 8.4 47.1 82 5.6 42.1 8.76 0.345
04:38 1025 30.27 854 25.22 8.5 47.2 82 5.6 42 8.77 0.345
04:39 1025 30.27 854 25.22 8.4 47.2 81 5.4 41.8 8.77 0.345
04:40 1025 30.27 854 25.22 8.5 47.3 81 5.5 41.8 8.7 0.343
04:41 1025 30.27 854 25.22 8.5 47.3 81 5.4 41.8 8.76 0.345
04:42 1025 30.27 854 25.22 8.7 47.6 80 5.5 41.9 8.87 0.349
04:43 1025 30.27 854 25.22 8.7 47.7 79 5.4 41.7 8.96 0.353
04:44 1025 30.27 854 25.22 8.9 47.9 79 5.4 41.6 9.03 0.356
04:45 1025 30.27 854 25.22 8.8 47.9 78 5.3 41.5 9.06 0.357
04:46 1025 30.27 854 25.22 8.8 47.8 78 5.2 41.4 9.05 0.356
04:47 1025 30.27 854 25.22 8.7 47.6 78 5.1 41.2 8.97 0.353
04:48 1025 30.27 854 25.22 8.5 47.3 79 5.1 41.1 8.82 0.347
04:49 1025 30.27 854 25.22 8.2 46.8 80 5 41 8.61 0.339
04:50 1025 30.27 854 25.22 8 46.4 81 4.9 40.8 8.38 0.33
04:51 1025 30.27 854 25.22 7.8 46.1 82 4.9 40.7 8.19 0.322
04:52 1025 30.27 854 25.22 7.7 45.9 82 4.9 40.7 8.08 0.318
04:53 1025 30.27 854 25.22 7.6 45.8 82 4.8 40.6 7.99 0.315
04:54 1025 30.27 854 25.22 7.6 45.8 82 4.8 40.6 8.03 0.316
04:55 1025 30.27 854 25.22 7.7 45.8 82 4.8 40.7 8.04 0.317
04:56 1025 30.27 854 25.22 7.6 45.7 82 4.8 40.6 7.98 0.314
04:57 1025 30.27 854 25.22 7.6 45.8 82 4.8 40.6 7.93 0.312
04:58 1025 30.27 854 25.22 7.5 45.5 82 4.7 40.5 7.86 0.309
04:59 1025 30.27 854 25.22 7.4 45.4 83 4.7 40.4 7.81 0.307
05:00 1025 30.27 854 25.22 7.3 45.2 83 4.6 40.3 7.7 0.303
05:01 1025 30.27 854 25.22 7.3 45.1 83 4.7 40.4 7.64 0.301
05:02 1025 30.27 854 25.22 7.2 44.9 84 4.6 40.3 7.58 0.298
05:03 1025 30.27 854 25.22 7.1 44.9 84 4.6 40.2 7.5 0.295
05:04 1025 30.27 854 25.22 7.1 44.8 84 4.6 40.3 7.51 0.296
05:05 1025 30.27 854 25.22 7.2 44.9 84 4.7 40.4 7.56 0.298
05:06 1025 30.27 854 25.22 7.3 45.1 84 4.8 40.6 7.59 0.299
05:07 1025 30.27 854 25.22 7.4 45.3 84 4.8 40.7 7.68 0.302
05:08 1025 30.27 854 25.22 7.5 45.4 83 4.8 40.6 7.78 0.306
05:09 1025 30.27 854 25.22 7.5 45.5 83 4.8 40.7 7.82 0.308
05:10 1025 30.27 854 25.22 7.6 45.7 83 4.9 40.9 7.91 0.311
05:11 1025 30.27 854 25.22 7.7 45.8 82 4.9 40.7 7.97 0.314
05:12 1025 30.27 854 25.22 7.7 45.9 82 4.9 40.8 8.02 0.316
05:13 1025 30.27 854 25.22 7.7 45.8 82 4.8 40.7 8 0.315
05:14 1025 30.27 854 25.22 7.7 45.9 82 4.8 40.7 8.04 0.317
05:15 1025 30.27 854 25.22 7.8 46.1 81 4.8 40.6 8.12 0.32
05:16 1025 30.27 854 25.22 7.8 46 81 4.8 40.6 8.14 0.32
05:17 1025 30.27 854 25.22 7.7 45.9 81 4.7 40.5 8.07 0.318
05:18 1025 30.27 854 25.22 7.6 45.7 82 4.7 40.5 7.91 0.311
05:19 1025 30.27 854 25.22 7.5 45.4 82 4.7 40.4 7.82 0.308
05:20 1025 30.27 854 25.22 7.4 45.2 83 4.7 40.5 7.7 0.303
05:21 1025 30.27 854 25.22 7.3 45.1 84 4.7 40.5 7.67 0.302
05:22 1025 30.27 854 25.22 7.3 45.1 84 4.7 40.4 7.6 0.299
05:23 1025 30.27 854 25.22 7.2 45 84 4.7 40.5 7.59 0.299
05:24 1025 30.27 854 25.22 7.2 44.9 84 4.7 40.4 7.51 0.296
05:25 1025 30.27 854 25.22 7.1 44.8 84 4.7 40.4 7.44 0.293
05:26 1025 30.27 854 25.22 7.1 44.8 84 4.6 40.3 7.47 0.294
05:27 1025 30.27 854 25.22 7.2 44.9 84 4.6 40.3 7.43 0.293
05:28 1025 30.27 854 25.22 7.1 44.7 84 4.6 40.2 7.4 0.291
05:29 1025 30.27 854 25.22 7 44.6 84 4.5 40.2 7.36 0.29
05:30 1025 30.27 854 25.22 6.9 44.5 85 4.6 40.2 7.29 0.287
05:31 1025 30.27 854 25.22 7 44.6 85 4.6 40.2 7.34 0.289
05:32 1025 30.27 854 25.22 7 44.6 84 4.5 40.1 7.33 0.289
05:33 1025 30.27 854 25.22 6.9 44.5 84 4.5 40.1 7.28 0.287
05:34 1025 30.27 854 25.22 6.8 44.3 85 4.5 40.1 7.22 0.284
05:35 1025 30.27 854 25.22 6.9 44.3 85 4.5 40.1 7.21 0.284
05:36 1025 30.27 854 25.22 6.9 44.4 84 4.4 40 7.2 0.283
05:37 1025 30.27 854 25.22 6.8 44.2 85 4.4 39.9 7.14 0.281
05:38 1025 30.27 854 25.22 6.7 44.1 85 4.4 39.9 7.1 0.28
05:39 1025 30.27 854 25.22 6.7 44.1 85 4.4 39.9 7.05 0.278
05:40 1025 30.27 854 25.22 6.7 44.1 85 4.4 39.9 7.05 0.278
05:41 1025 30.27 854 25.22 6.8 44.2 85 4.3 39.8 7.09 0.279
05:42 1025 30.27 854 25.22 6.7 44.1 84 4.3 39.7 7.07 0.278
05:43 1025 30.27 854 25.22 6.7 44 85 4.3 39.8 7.02 0.276
05:44 1025 30.27 854 25.22 6.6 43.9 85 4.3 39.7 7.01 0.276
05:45 1025 30.27 854 25.22 6.6 43.8 85 4.2 39.6 6.933 0.273
05:46 1025 30.27 854 25.22 6.5 43.8 86 4.4 39.9 6.933 0.273
05:47 1025 30.27 854 25.22 6.7 44 85 4.3 39.8 7.02 0.276
05:48 1025 30.27 854 25.22 6.8 44.2 84 4.3 39.8 7.08 0.279
05:49 1025 30.27 854 25.22 6.7 44.1 85 4.3 39.8 7.03 0.277
05:50 1025 30.27 854 25.22 6.7 44.1 85 4.4 39.9 7.08 0.279
05:51 1025 30.27 854 25.22 6.8 44.3 84 4.3 39.8 7.13 0.281
05:52 1025 30.27 854 25.22 6.8 44.2 84 4.3 39.7 7.07 0.278
05:53 1025 30.27 854 25.22 6.6 43.9 84 4.2 39.6 6.985 0.275
05:54 1025 30.27 854 25.22 6.5 43.8 85 4.2 39.6 6.86 0.27
05:55 1025 30.27 854 25.22 6.5 43.7 85 4.1 39.5 6.832 0.269
05:56 1025 30.27 854 25.22 6.4 43.6 85 4.1 39.5 6.827 0.269
05:57 1025 30.27 854 25.22 6.4 43.5 85 4.1 39.5 6.781 0.267
05:58 1025 30.27 855 25.25 6.4 43.4 86 4.1 39.5 6.708 0.264
05:59 1025 30.27 854 25.22 6.4 43.5 86 4.2 39.5 6.748 0.266
06:00 1025 30.27 854 25.22 6.4 43.6 85 4.1 39.4 6.787 0.267
06:01 1025 30.27 854 25.22 6.4 43.6 85 4.2 39.5 6.736 0.265
06:02 1025 30.27 855 25.25 6.4 43.5 86 4.3 39.7 6.714 0.264
06:03 1025 30.27 855 25.25 6.4 43.5 86 4.2 39.6 6.748 0.266
06:04 1025 30.27 855 25.25 6.4 43.5 87 4.3 39.8 6.736 0.265
06:05 1025 30.27 855 25.25 6.4 43.5 86 4.3 39.7 6.765 0.266
06:06 1025 30.27 855 25.25 6.4 43.5 86 4.3 39.7 6.714 0.264
06:07 1025 30.27 855 25.25 6.4 43.4 87 4.3 39.8 6.731 0.265
06:08 1025 30.27 855 25.25 6.4 43.5 87 4.3 39.8 6.697 0.264
06:09 1025 30.27 855 25.25 6.3 43.4 87 4.3 39.7 6.686 0.263
06:10 1025 30.27 855 25.25 6.3 43.3 87 4.2 39.6 6.635 0.261
06:11 1025 30.27 855 25.25 6.2 43.1 87 4.2 39.6 6.59 0.259
06:12 1025 30.27 855 25.25 6.1 43 88 4.2 39.6 6.527 0.257
06:13 1025 30.27 855 25.25 6.1 43 88 4.2 39.6 6.533 0.257
06:14 1025 30.27 854 25.22 6.2 43.2 87 4.3 39.7 6.584 0.259
06:15 1025 30.27 855 25.25 6.3 43.4 87 4.3 39.7 6.646 0.262
06:16 1025 30.27 855 25.25 6.3 43.4 87 4.3 39.7 6.629 0.261
06:17 1025 30.27 855 25.25 6.3 43.3 87 4.3 39.7 6.68 0.263
06:18 1025 30.27 855 25.25 6.3 43.3 87 4.3 39.7 6.663 0.262
06:19 1025 30.27 855 25.25 6.4 43.5 87 4.4 39.9 6.793 0.267
06:20 1025 30.27 855 25.25 6.5 43.7 87 4.4 40 6.85 0.27
06:21 1025 30.27 855 25.25 6.7 44 86 4.5 40.1 7.01 0.276
06:22 1025 30.27 855 25.25 6.8 44.2 85 4.5 40.1 7.14 0.281
06:23 1025 30.27 855 25.25 6.9 44.5 85 4.5 40.1 7.21 0.284
06:24 1025 30.27 854 25.22 7.1 44.7 84 4.6 40.3 7.31 0.288
06:25 1025 30.27 854 25.22 7.2 44.9 83 4.6 40.2 7.48 0.294
06:26 1025 30.27 854 25.22 7.3 45.2 83 4.6 40.3 7.63 0.3
06:27 1025 30.27 855 25.25 7.5 45.4 82 4.6 40.3 7.75 0.305
06:28 1025 30.27 855 25.25 7.5 45.6 82 4.7 40.4 7.77 0.306
06:29 1025 30.27 855 25.25 7.6 45.7 82 4.7 40.5 7.88 0.31
06:30 1025 30.27 855 25.25 7.7 45.8 81 4.7 40.4 7.96 0.313
06:31 1025 30.27 855 25.25 7.9 46.1 80 4.7 40.4 8.11 0.319
06:32 1025 30.27 855 25.25 8 46.4 80 4.7 40.5 8.25 0.325
06:33 1025 30.27 855 25.25 8.1 46.5 80 4.8 40.6 8.32 0.328
06:34 1025 30.27 855 25.25 8.1 46.5 80 4.8 40.6 8.32 0.328
06:35 1025 30.27 855 25.25 8.1 46.5 80 4.8 40.6 8.37 0.33
06:36 1025 30.27 855 25.25 8.1 46.7 79 4.8 40.7 8.44 0.332
06:37 1025 30.27 855 25.25 8.2 46.7 80 4.9 40.8 8.45 0.333
06:38 1025 30.27 855 25.25 8.2 46.8 80 4.9 40.9 8.45 0.333
06:39 1025 30.27 855 25.25 8.2 46.8 79 4.9 40.7 8.48 0.334
06:40 1025 30.27 855 25.25 8.2 46.8 79 4.9 40.8 8.56 0.337
06:41 1025 30.27 855 25.25 8.3 46.9 79 4.9 40.9 8.61 0.339
06:42 1025 30.27 855 25.25 8.4 47.1 79 5 41.1 8.67 0.341
06:43 1025 30.27 855 25.25 8.4 47.1 79 5.1 41.1 8.71 0.343
06:44 1025 30.27 855 25.25 8.5 47.2 79 5.1 41.2 8.8 0.346
06:45 1025 30.27 855 25.25 8.5 47.3 79 5 41 8.89 0.35
06:46 1025 30.27 855 25.25 8.6 47.6 79 5.3 41.5 8.98 0.354
06:47 1025 30.27 855 25.25 8.7 47.7 79 5.3 41.6 9.03 0.356
06:48 1025 30.27 855 25.25 8.8 47.9 78 5.2 41.4 9.08 0.357
06:49 1025 30.27 855 25.25 9 48.1 77 5.1 41.2 9.18 0.361
06:50 1025 30.27 855 25.25 9.1 48.4 76 5.1 41.2 9.32 0.367
06:51 1025 30.27 855 25.25 9.3 48.7 76 5.2 41.4 9.51 0.374
06:52 1025 30.27 855 25.25 9.4 48.8 76 5.3 41.6 9.71 0.382
06:53 1025 30.27 855 25.25 9.4 49 75 5.2 41.4 9.9 0.39
06:54 1025 30.27 855 25.25 9.6 49.2 75 5.3 41.5 10.03 0.395
06:55 1025 30.27 854 25.22 9.7 49.4 74 5.4 41.7 10.16 0.4
06:56 1025 30.27 854 25.22 9.7 49.4 74 5.3 41.6 10.22 0.402
06:57 1025 30.27 854 25.22 9.8 49.6 75 5.5 41.9 10.32 0.406
06:58 1025 30.27 854 25.22 9.9 49.8 74 5.5 41.8 10.5 0.413
06:59 1025 30.27 854 25.22 10 50.1 73 5.4 41.7 10.61 0.418
07:00 1025 30.27 854 25.22 10.1 50.1 72 5.4 41.7 10.66 0.42
07:01 1025 30.27 854 25.22 10.1 50.1 73 5.5 41.8 10.67 0.42
07:02 1025 30.27 854 25.22 10.1 50.2 73 5.5 41.9 10.73 0.422
07:03 1025 30.27 854 25.22 10.2 50.3 74 5.7 42.3 10.82 0.426
07:04 1025 30.27 854 25.22 10.2 50.4 73 5.5 42 10.93 0.43
07:05 1025 30.27 854 25.22 10.2 50.4 73 5.7 42.2 10.91 0.43
07:06 1025 30.27 854 25.22 10.2 50.4 73 5.7 42.3 10.9 0.429
07:07 1025 30.27 854 25.22 10.2 50.4 73 5.7 42.3 10.93 0.43
07:08 1025 30.27 854 25.22 10.2 50.4 73 5.6 42 10.9 0.429
07:09 1025 30.27 854 25.22 10.3 50.6 73 5.8 42.4 10.89 0.429
07:10 1025 30.27 854 25.22 10.4 50.6 72 5.6 42.1 10.88 0.428
07:11 1025 30.27 854 25.22 10.4 50.7 74 6 42.8 10.86 0.428
07:12 1025 30.27 854 25.22 10.4 50.8 73 5.8 42.4 10.89 0.429
07:13 1025 30.27 854 25.22 10.5 50.9 73 5.8 42.5 10.92 0.43
07:14 1025 30.27 854 25.22 10.7 51.2 73 6.1 42.9 11.07 0.436
07:15 1025 30.27 854 25.22 10.9 51.6 70 5.7 42.3 11.18 0.44
07:16 1025 30.27 854 25.22 11.1 51.9 70 5.8 42.5 11.33 0.446
07:17 1025 30.27 854 25.22 11.2 52.2 71 6.2 43.2 11.46 0.451
07:18 1025 30.27 854 25.22 11.3 52.4 68 5.7 42.2 11.63 0.458
07:19 1025 30.27 854 25.22 11.3 52.3 68 5.6 42 11.68 0.46
07:20 1025 30.27 854 25.22 11.2 52.1 70 6 42.8 11.69 0.46
07:21 1025 30.27 854 25.22 11.2 52.1 70 6 42.7 11.65 0.459
07:22 1025 30.27 854 25.22 11.1 52 72 6.3 43.4 11.61 0.457
07:23 1025 30.27 854 25.22 11.1 52 71 6 42.8 11.54 0.454
07:24 1025 30.27 854 25.22 11.1 51.9 72 6.2 43.2 11.5 0.453
07:25 1025 30.27 854 25.22 11.1 51.9 71 6 42.7 11.52 0.454
07:26 1025 30.27 854 25.22 11.1 52 72 6.4 43.5 11.57 0.456
07:27 1025 30.27 854 25.22 11.1 52.1 74 6.7 44 11.65 0.459
07:28 1025 30.27 854 25.22 11.2 52.2 71 6.2 43.2 11.7 0.461
07:29 1025 30.27 854 25.22 11.3 52.3 73 6.7 44 11.76 0.463
07:30 1025 30.27 854 25.22 11.4 52.4 71 6.3 43.3 11.8 0.465
07:31 1025 30.27 854 25.22 11.4 52.6 70 6.3 43.3 11.89 0.468
07:32 1025 30.27 854 25.22 11.6 52.8 67 5.7 42.2 11.95 0.47
07:33 1025 30.27 854 25.22 11.7 53 67 5.7 42.3 12.03 0.474
07:34 1025 30.27 854 25.22 11.7 53.1 67 5.8 42.4 12.13 0.478
07:35 1025 30.27 854 25.22 11.8 53.2 69 6.4 43.6 12.23 0.481
07:36 1025 30.27 854 25.22 11.9 53.4 68 6.2 43.1 12.34 0.486
07:37 1025 30.27 854 25.22 12 53.5 68 6.3 43.3 12.43 0.489
07:38 1025 30.27 854 25.22 12 53.6 68 6.4 43.5 12.49 0.492
07:39 1025 30.27 854 25.22 12.1 53.8 66 6 42.9 12.66 0.498
07:40 1025 30.27 854 25.22 12.2 54 67 6.3 43.4 12.75 0.502
07:41 1025 30.27 854 25.22 12.3 54.2 66 6.3 43.3 12.87 0.507
07:42 1025 30.27 854 25.22 12.4 54.3 65 6 42.8 12.95 0.51
07:43 1025 30.27 854 25.22 12.4 54.3 66 6.3 43.4 13 0.512
07:44 1025 30.27 854 25.22 12.5 54.5 67 6.5 43.7 13.06 0.514
07:45 1025 30.27 854 25.22 12.5 54.6 67 6.6 43.9 13.16 0.518
07:46 1025 30.27 854 25.22 12.6 54.7 65 6.3 43.3 13.25 0.522
07:47 1025 30.27 854 25.22 12.7 54.8 65 6.4 43.5 13.39 0.527
07:48 1025 30.27 854 25.22 12.8 55 67 6.8 44.2 13.51 0.532
07:49 1025 30.27 854 25.22 12.9 55.1 66 6.6 44 13.64 0.537
07:50 1025 30.27 854 25.22 12.9 55.2 65 6.5 43.6 13.69 0.539
07:51 1025 30.27 854 25.22 13 55.4 63 6.1 43 13.81 0.544
07:52 1025 30.27 854 25.22 13 55.5 63 6.2 43.2 13.87 0.546
07:53 1025 30.27 854 25.22 13.1 55.6 66 6.8 44.3 13.95 0.549
07:54 1025 30.27 854 25.22 13.2 55.7 64 6.6 43.8 14.07 0.554
07:55 1025 30.27 854 25.22 13.3 55.9 65 6.8 44.2 14.14 0.557
07:56 1025 30.27 854 25.22 13.4 56.1 68 7.7 45.9 14.25 0.561
07:57 1025 30.27 854 25.22 13.5 56.3 63 6.6 43.9 14.31 0.563
07:58 1025 30.27 854 25.22 13.6 56.5 62 6.5 43.6 14.43 0.568
07:59 1025 30.27 854 25.22 13.7 56.6 63 6.9 44.4 14.49 0.57
08:00 1025 30.27 854 25.22 13.6 56.5 62 6.5 43.7 14.44 0.569
08:01 1025 30.27 854 25.22 13.7 56.7 62 6.7 44.1 14.47 0.57
08:02 1025 30.27 854 25.22 13.8 56.8 61 6.4 43.6 14.53 0.572
08:03 1025 30.27 854 25.22 13.8 56.8 63 7 44.7 14.53 0.572
08:04 1025 30.27 854 25.22 13.8 56.9 64 7.1 44.8 14.54 0.572
08:05 1025 30.27 854 25.22 13.9 57 61 6.6 43.8 14.62 0.576
08:06 1025 30.27 854 25.22 13.9 57.1 61 6.6 43.9 14.72 0.58
08:07 1025 30.27 854 25.22 14 57.2 62 7 44.6 14.79 0.582
08:08 1025 30.27 854 25.22 14.1 57.3 63 7.3 45.1 14.83 0.584
08:09 1025 30.27 854 25.22 14.1 57.4 63 7.1 44.8 14.88 0.586
08:10 1025 30.27 854 25.22 14.2 57.6 63 7.3 45.1 15.03 0.592
08:11 1025 30.27 854 25.22 14.3 57.8 60 6.7 44 15.16 0.597
08:12 1025 30.27 854 25.22 14.4 57.9 60 6.8 44.3 15.26 0.601
08:13 1025 30.27 854 25.22 14.4 58 62 7.3 45.1 15.33 0.604
08:14 1025 30.27 854 25.22 14.6 58.2 65 8.1 46.6 15.51 0.611
08:15 1025 30.27 854 25.22 14.8 58.6 59 6.8 44.3 15.77 0.621
08:16 1025 30.27 854 25.22 14.8 58.7 60 7.2 44.9 15.82 0.623
08:17 1025 30.27 854 25.22 14.8 58.7 60 7.3 45.1 15.89 0.626
08:18 1025 30.27 854 25.22 14.8 58.7 62 7.6 45.8 15.87 0.625
08:19 1025 30.27 854 25.22 14.9 58.8 61 7.6 45.7 15.98 0.629
08:20 1025 30.27 854 25.22 15.1 59.1 61 7.8 46 16.11 0.634
08:21 1025 30.27 854 25.22 15.3 59.5 60 7.6 45.7 16.23 0.639
08:22 1025 30.27 854 25.22 15.4 59.7 58 7.4 45.3 16.42 0.646
08:23 1025 30.27 854 25.22 15.5 59.9 59 7.6 45.6 16.52 0.65
08:24 1025 30.27 854 25.22 15.6 60.2 57 7.3 45.2 16.51 0.65
08:25 1025 30.27 854 25.22 15.8 60.4 57 7.3 45.1 16.51 0.65
08:26 1025 30.27 854 25.22 15.9 60.7 56 7.3 45.2 16.59 0.653
08:27 1025 30.27 854 25.22 16.1 60.9 56 7.5 45.4 16.65 0.656
08:28 1025 30.27 854 25.22 16.1 61 57 7.7 45.8 16.7 0.657
08:29 1025 30.27 854 25.22 16.2 61.1 57 7.8 46.1 16.94 0.667
08:30 1025 30.27 854 25.22 16.2 61.1 56 7.5 45.5 17.08 0.672
08:31 1025 30.27 854 25.22 16.1 61 58 8 46.5 17.11 0.674
08:32 1025 30.27 854 25.22 16.3 61.3 57 7.8 46 17.42 0.686
08:33 1025 30.27 854 25.22 16.4 61.5 58 8.2 46.8 17.53 0.69
08:34 1025 30.27 854 25.22 16.3 61.4 58 8.2 46.7 17.35 0.683
08:35 1025 30.27 854 25.22 16.3 61.4 59 8.3 47 17.24 0.679
08:36 1025 30.27 854 25.22 16.3 61.4 57 8 46.4 17.26 0.68
08:37 1025 30.27 854 25.22 16.2 61.2 56 7.5 45.5 17.16 0.676
08:38 1025 30.27 854 25.22 16.3 61.3 59 8.2 46.8 17.25 0.679
08:39 1025 30.27 854 25.22 16.2 61.2 55 7.4 45.3 17.13 0.674
08:40 1025 30.27 854 25.22 16.2 61.1 61 8.7 47.6 17.07 0.672
08:41 1025 30.27 854 25.22 16.2 61.1 56 7.6 45.7 17.15 0.675
08:42 1025 30.27 854 25.22 16.2 61.2 56 7.5 45.4 17.22 0.678
08:43 1025 30.27 854 25.22 16.4 61.4 56 7.8 46 17.29 0.681
08:44 1025 30.27 854 25.22 16.6 61.8 55 7.5 45.5 17.51 0.689
08:45 1025 30.27 854 25.22 16.7 62 54 7.3 45.2 17.56 0.691
08:46 1025 30.27 854 25.22 16.8 62.2 56 8.1 46.5 17.73 0.698
08:47 1025 30.27 854 25.22 16.8 62.2 54 7.6 45.7 17.77 0.7
08:48 1025 30.27 854 25.22 16.7 62 54 7.3 45.2 17.63 0.694
08:49 1025 30.27 854 25.22 16.8 62.2 55 7.7 45.9 17.63 0.694
08:50 1025 30.27 854 25.22 16.9 62.5 56 8.1 46.7 17.83 0.702
08:51 1025 30.27 854 25.22 17.2 63 52 7.2 45 17.95 0.707
08:52 1025 30.27 854 25.22 17.4 63.2 51 7.3 45.2 18.06 0.711
08:53 1025 30.27 854 25.22 17.4 63.3 52 7.7 45.8 18.24 0.718
08:54 1025 30.27 854 25.22 17.3 63.1 55 8.3 47 18.14 0.714
08:55 1025 30.27 854 25.22 17.3 63.2 55 8.4 47.1 18.14 0.714
08:56 1025 30.27 854 25.22 17.3 63.1 52 7.4 45.3 18.13 0.714
08:57 1025 30.27 854 25.22 17.1 62.8 55 8.2 46.8 17.98 0.708
08:58 1025 30.27 854 25.22 17 62.7 55 7.9 46.3 17.87 0.704
08:59 1025 30.27 854 25.22 17 62.7 55 8.1 46.5 17.82 0.702
09:00 1025 30.27 854 25.22 17.1 62.8 53 7.4 45.4 17.85 0.703
09:01 1025 30.27 854 25.22 17.2 63 55 8.2 46.7 17.88 0.704
09:02 1025 30.27 854 25.22 17.3 63.2 55 8.2 46.7 17.89 0.704
09:03 1025 30.27 854 25.22 17.4 63.3 51 7.3 45.2 17.9 0.705
09:04 1025 30.27 854 25.22 17.4 63.3 51 7.4 45.3 17.96 0.707
09:05 1025 30.27 854 25.22 17.4 63.4 51 7.4 45.3 18.07 0.711
09:06 1025 30.27 854 25.22 17.4 63.4 52 7.5 45.5 18.07 0.711
09:07 1025 30.27 854 25.22 17.5 63.4 50 7.2 44.9 18.11 0.713
09:08 1025 30.27 854 25.22 17.4 63.3 51 7.4 45.3 18.12 0.713
09:09 1025 30.27 854 25.22 17.4 63.3 52 7.5 45.5 18.12 0.713
09:10 1025 30.27 854 25.22 17.4 63.4 52 7.5 45.5 18.13 0.714
09:11 1025 30.27 854 25.22 17.5 63.4 49 6.9 44.4 18.15 0.715
09:12 1025 30.27 854 25.22 17.4 63.3 53 8 46.3 18.14 0.714
09:13 1025 30.27 854 25.22 17.4 63.4 52 7.7 45.9 18.16 0.715
09:14 1025 30.27 854 25.22 17.4 63.4 53 7.8 46 18.13 0.714
09:15 1025 30.27 854 25.22 17.5 63.4 52 7.6 45.6 18.18 0.716
09:16 1025 30.27 854 25.22 17.4 63.4 50 6.9 44.5 18.19 0.716
09:17 1025 30.27 854 25.22 17.5 63.4 52 7.6 45.6 18.19 0.716
09:18 1025 30.27 854 25.22 17.6 63.6 51 7.5 45.5 18.24 0.718
09:19 1025 30.27 854 25.22 17.7 63.8 54 8.3 46.9 18.27 0.719
09:20 1025 30.27 854 25.22 17.8 64 52 7.9 46.3 18.34 0.722
09:21 1025 30.27 854 25.22 17.9 64.3 49 7.1 44.8 18.46 0.727
09:22 1025 30.27 854 25.22 18.1 64.5 49 7.3 45.1 18.46 0.727
09:23 1025 30.27 854 25.22 18.1 64.7 51 8 46.4 18.56 0.731
09:24 1025 30.27 854 25.22 18.3 65 52 8.4 47.2 18.75 0.738
09:25 1025 30.27 854 25.22 18.5 65.2 49 7.8 46.1 18.94 0.746
09:26 1025 30.27 854 25.22 18.6 65.6 49 7.8 46 19.1 0.752
09:27 1025 30.27 854 25.22 18.9 65.9 47 7.3 45.1 19.24 0.757
09:28 1025 30.27 854 25.22 18.8 65.9 52 9 48.1 19.13 0.753
09:29 1025 30.27 854 25.22 18.7 65.7 50 8.1 46.6 19.07 0.751
09:30 1025 30.27 854 25.22 18.6 65.5 51 8.3 47 18.74 0.738
09:31 1025 30.27 854 25.22 18.4 65.1 56 9.7 49.5 18.49 0.728
09:32 1025 30.27 854 25.22 18.4 65 50 7.8 46.1 18.59 0.732
09:33 1025 30.27 854 25.22 18.3 64.9 51 8.1 46.6 18.5 0.728
09:34 1025 30.27 854 25.22 18.3 64.9 53 8.6 47.5 18.53 0.73
09:35 1025 30.27 854 25.22 18.4 65.1 52 8.5 47.3 18.69 0.736
09:36 1025 30.27 854 25.22 18.5 65.3 53 9 48.1 18.75 0.738
09:37 1025 30.27 854 25.22 18.6 65.4 50 8.2 46.8 18.79 0.74
09:38 1025 30.27 854 25.22 18.6 65.4 50 8.1 46.6 18.66 0.735
09:39 1025 30.27 854 25.22 18.5 65.2 50 8.1 46.6 18.54 0.73
09:40 1025 30.27 854 25.22 18.5 65.2 51 8.4 47.1 18.52 0.729
09:41 1025 30.27 854 25.22 18.4 65.1 56 9.5 49.1 18.4 0.724
09:42 1025 30.27 854 25.22 18.3 64.9 54 8.8 47.8 18.35 0.722
09:43 1025 30.27 854 25.22 18.2 64.8 52 8.3 47 18.29 0.72
09:44 1025 30.27 854 25.22 18.2 64.7 54 8.9 48 18.28 0.72
09:45 1025 30.27 854 25.22 18.1 64.7 51 7.9 46.3 18.33 0.722
09:46 1025 30.27 854 25.22 18.1 64.6 51 8 46.4 18.29 0.72
09:47 1025 30.27 854 25.22 18.2 64.7 53 8.4 47.1 18.36 0.723
09:48 1025 30.27 854 25.22 18.2 64.7 54 8.7 47.7 18.51 0.729
09:49 1025 30.27 854 25.22 18.3 65 53 8.7 47.6 18.69 0.736
09:50 1025 30.27 854 25.22 18.5 65.3 54 9.1 48.3 18.83 0.741
09:51 1025 30.27 854 25.22 18.6 65.5 53 9 48.3 18.82 0.741
09:52 1025 30.27 854 25.22 18.7 65.7 50 8.1 46.5 18.78 0.739
09:53 1025 30.27 854 25.22 18.6 65.4 52 8.7 47.6 18.55 0.73
09:54 1025 30.27 854 25.22 18.5 65.2 51 8.3 46.9 18.51 0.729
09:55 1025 30.27 854 25.22 18.4 65.2 56 9.5 49.1 18.6 0.732
09:56 1025 30.27 854 25.22 18.5 65.3 52 8.7 47.6 18.69 0.736
09:57 1025 30.27 854 25.22 18.6 65.4 52 8.7 47.7 18.72 0.737
09:58 1025 30.27 854 25.22 18.6 65.5 50 8.2 46.7 18.79 0.74
09:59 1025 30.27 854 25.22 18.6 65.5 51 8.4 47.1 18.79 0.74
10:00 1025 30.27 854 25.22 18.6 65.5 52 8.8 47.8 18.77 0.739
10:01 1025 30.27 854 25.22 18.7 65.6 54 9.4 48.9 18.9 0.744
10:02 1025 30.27 854 25.22 18.8 65.8 50 8.3 47 19.02 0.749
10:03 1025 30.27 854 25.22 18.7 65.7 49 8 46.5 18.9 0.744
10:04 1025 30.27 854 25.22 18.7 65.7 50 8.1 46.6 18.9 0.744
10:05 1025 30.27 854 25.22 18.8 65.8 51 8.5 47.4 18.96 0.746
10:06 1025 30.27 854 25.22 18.8 65.9 50 8.2 46.8 19.03 0.749
10:07 1025 30.27 854 25.22 18.8 65.8 50 8.4 47.1 18.85 0.742
10:08 1025 30.27 854 25.22 18.8 65.8 51 8.5 47.3 18.84 0.742
10:09 1025 30.27 854 25.22 18.7 65.7 50 8.3 46.9 18.84 0.742
10:10 1025 30.27 854 25.22 18.8 65.8 50 8.2 46.8 18.88 0.743
10:11 1025 30.27 854 25.22 18.8 65.9 51 8.5 47.2 18.88 0.743
10:12 1025 30.27 854 25.22 18.9 66 54 9.6 49.3 19.02 0.749
10:13 1025 30.27 854 25.22 19 66.2 50 8.3 47 19.15 0.754
10:14 1025 30.27 854 25.22 19 66.1 49 8.2 46.8 19.05 0.75
10:15 1025 30.27 854 25.22 18.9 66 51 8.5 47.4 18.98 0.747
10:16 1025 30.27 854 25.22 18.9 66 49 8 46.5 18.97 0.747
10:17 1025 30.27 854 25.22 18.9 65.9 50 8.2 46.8 18.97 0.747
10:18 1025 30.27 854 25.22 18.9 65.9 52 8.9 48 18.96 0.746
10:19 1025 30.27 854 25.22 18.9 66 50 8.2 46.8 19.11 0.752
10:20 1025 30.27 854 25.22 18.9 66.1 52 8.9 48 19.17 0.755
10:21 1025 30.27 854 25.22 19 66.1 51 8.8 47.9 19.12 0.753
10:22 1025 30.27 854 25.22 18.9 66 51 8.6 47.5 19.05 0.75
10:23 1025 30.27 854 25.22 18.8 65.9 51 8.7 47.7 18.99 0.748
10:24 1025 30.27 854 25.22 18.9 65.9 52 8.8 47.8 19.07 0.751
10:25 1025 30.27 854 25.22 19 66.2 51 8.7 47.6 19.24 0.757
10:26 1025 30.27 854 25.22 18.9 66.1 52 9.1 48.3 19.2 0.756
10:27 1025 30.27 854 25.22 18.9 65.9 51 8.6 47.5 19.12 0.753
10:28 1025 30.27 854 25.22 18.9 66 50 8.4 47.1 19.11 0.752
10:29 1025 30.27 854 25.22 18.9 66 54 9.5 49.1 19.09 0.752
10:30 1025 30.27 854 25.22 18.8 65.9 51 8.6 47.5 19.15 0.754
10:31 1025 30.27 854 25.22 18.8 65.8 55 9.7 49.5 19.16 0.754
10:32 1025 30.27 854 25.22 18.9 65.9 50 8.5 47.3 19.18 0.755
10:33 1025 30.27 854 25.22 18.9 66 55 9.6 49.3 19.13 0.753
10:34 1025 30.27 854 25.22 18.9 66 49 8 46.5 19.17 0.755
10:35 1025 30.27 854 25.22 18.9 66 51 8.6 47.4 19.13 0.753
10:36 1025 30.27 854 25.22 19 66.1 52 9 48.1 19.17 0.755
10:37 1025 30.27 854 25.22 18.8 65.9 52 9 48.1 19.09 0.752
10:38 1025 30.27 854 25.22 18.7 65.6 53 9 48.2 18.99 0.748
10:39 1025 30.27 854 25.22 18.7 65.6 51 8.6 47.4 19.01 0.748
10:40 1025 30.27 854 25.22 18.6 65.5 52 8.6 47.4 18.98 0.747
10:41 1025 30.27 854 25.22 18.7 65.6 52 8.8 47.8 19 0.748
10:42 1025 30.27 854 25.22 18.8 65.9 49 7.9 46.3 19.07 0.751
10:43 1024 30.24 854 25.22 18.8 65.9 52 8.9 48.1 19.12 0.753
10:44 1024 30.24 854 25.22 18.9 66.1 50 8.4 47.1 19.22 0.757
10:45 1024 30.24 854 25.22 19.1 66.3 51 8.8 47.8 19.26 0.758
10:46 1024 30.24 854 25.22 19.2 66.5 49 8.3 47 19.26 0.758
10:47 1024 30.24 854 25.22 19.2 66.6 50 8.7 47.7 19.26 0.758
10:48 1024 30.24 854 25.22 19.3 66.7 54 9.7 49.5 19.38 0.763
10:49 1024 30.24 854 25.22 19.4 67 50 8.9 48 19.53 0.769
10:50 1024 30.24 854 25.22 19.5 67.1 49 8.5 47.4 19.69 0.775
10:51 1024 30.24 854 25.22 19.6 67.3 46 8 46.4 19.65 0.774
10:52 1024 30.24 854 25.22 19.5 67 49 8.5 47.2 19.48 0.767
10:53 1024 30.24 854 25.22 19.4 66.8 52 9.3 48.7 19.4 0.764
10:54 1025 30.27 854 25.22 19.3 66.8 51 9.1 48.3 19.44 0.765
10:55 1024 30.24 854 25.22 19.4 66.9 52 9.4 49 19.55 0.77
10:56 1024 30.24 854 25.22 19.6 67.2 50 9 48.2 19.78 0.779
10:57 1024 30.24 854 25.22 19.5 67.2 50 9.1 48.3 19.8 0.78
10:58 1024 30.24 854 25.22 19.6 67.3 50 9.1 48.3 19.85 0.781
10:59 1024 30.24 854 25.22 19.7 67.5 48 8.7 47.6 19.94 0.785
11:00 1024 30.24 854 25.22 19.7 67.5 47 8.1 46.7 19.86 0.782
11:01 1024 30.24 854 25.22 19.6 67.3 49 8.7 47.6 19.76 0.778
11:02 1024 30.24 854 25.22 19.5 67.1 51 9.2 48.6 19.58 0.771
11:03 1024 30.24 854 25.22 19.5 67 49 8.5 47.3 19.57 0.77
11:04 1024 30.24 854 25.22 19.5 67.1 46 7.8 46 19.59 0.771
11:05 1024 30.24 854 25.22 19.4 66.9 47 7.9 46.1 19.44 0.765
11:06 1024 30.24 854 25.22 19.3 66.7 51 8.9 48.1 19.39 0.763
11:07 1024 30.24 854 25.22 19.3 66.8 48 8.1 46.5 19.56 0.77
11:08 1024 30.24 854 25.22 19.4 67 49 8.5 47.3 19.71 0.776
11:09 1024 30.24 854 25.22 19.6 67.3 46 7.8 46 19.8 0.78
11:10 1024 30.24 854 25.22 19.7 67.5 49 8.8 47.8 19.87 0.782
11:11 1024 30.24 854 25.22 19.8 67.6 49 8.9 48 19.8 0.78
11:12 1024 30.24 854 25.22 19.8 67.6 48 8.5 47.4 19.87 0.782
11:13 1024 30.24 854 25.22 19.9 67.7 48 8.6 47.5 20.04 0.789
11:14 1024 30.24 854 25.22 19.9 67.7 50 9.3 48.8 20.1 0.791
11:15 1024 30.24 854 25.22 19.9 67.8 46 8 46.4 20.06 0.79
11:16 1024 30.24 854 25.22 19.9 67.7 52 9.8 49.6 19.98 0.787
11:17 1024 30.24 854 25.22 19.9 67.8 46 8 46.3 20.08 0.791
11:18 1024 30.24 854 25.22 19.9 67.8 49 8.9 48.1 19.97 0.786
11:19 1024 30.24 854 25.22 19.8 67.6 48 8.7 47.7 19.99 0.787
11:20 1024 30.24 854 25.22 19.8 67.7 45 7.7 45.9 20.01 0.788
11:21 1024 30.24 854 25.22 19.9 67.8 49 9.1 48.5 20 0.787
11:22 1024 30.24 854 25.22 20 68 49 9.1 48.4 20.15 0.793
11:23 1024 30.24 853 25.19 20.1 68.1 48 8.8 47.8 20.25 0.797
11:24 1024 30.24 854 25.22 20.1 68.3 45 8 46.3 20.29 0.799
11:25 1024 30.24 854 25.22 20.2 68.3 50 9.5 49.1 20.33 0.8
11:26 1024 30.24 854 25.22 20.2 68.4 49 9.2 48.5 20.51 0.807
11:27 1024 30.24 854 25.22 20.4 68.7 45 8.2 46.7 20.65 0.813
11:28 1024 30.24 854 25.22 20.4 68.7 48 9 48.3 20.64 0.813
11:29 1024 30.24 854 25.22 20.4 68.7 45 8.2 46.7 20.62 0.812
11:30 1024 30.24 854 25.22 20.3 68.6 48 9.2 48.5 20.49 0.807
11:31 1024 30.24 854 25.22 20.4 68.6 43 7.5 45.6 20.47 0.806
11:32 1024 30.24 853 25.19 20.2 68.4 46 8.2 46.8 20.27 0.798
11:33 1024 30.24 854 25.22 20.2 68.4 48 9 48.3 20.31 0.8
11:34 1024 30.24 854 25.22 20.3 68.5 48 9 48.2 20.46 0.806
11:35 1024 30.24 854 25.22 20.3 68.6 49 9.4 48.9 20.5 0.807
11:36 1024 30.24 853 25.19 20.4 68.7 45 8.1 46.6 20.62 0.812
11:37 1024 30.24 853 25.19 20.5 68.9 44 7.9 46.2 20.81 0.819
11:38 1024 30.24 853 25.19 20.6 69.1 45 8.3 46.9 20.91 0.823
11:39 1024 30.24 853 25.19 20.6 69 44 8 46.4 20.81 0.819
11:40 1024 30.24 853 25.19 20.6 69 43 7.7 45.8 20.8 0.819
11:41 1024 30.24 853 25.19 20.6 69.1 45 8.4 47.1 20.68 0.814
11:42 1024 30.24 853 25.19 20.6 69.1 43 7.7 45.9 20.73 0.816
11:43 1024 30.24 853 25.19 20.6 69.1 46 8.8 47.8 20.75 0.817
11:44 1024 30.24 853 25.19 20.7 69.2 45 8.6 47.6 20.93 0.824
11:45 1024 30.24 853 25.19 20.7 69.3 46 8.8 47.8 20.84 0.82
11:46 1024 30.24 853 25.19 20.6 69 44 8.2 46.8 20.63 0.812
11:47 1024 30.24 853 25.19 20.5 68.8 46 8.7 47.6 20.6 0.811
11:48 1024 30.24 853 25.19 20.4 68.7 50 9.7 49.5 20.54 0.809
11:49 1024 30.24 853 25.19 20.4 68.7 46 8.5 47.3 20.68 0.814
11:50 1024 30.24 853 25.19 20.5 69 47 8.9 48 20.81 0.819
11:51 1024 30.24 853 25.19 20.6 69.1 44 7.9 46.3 20.82 0.82
11:52 1024 30.24 853 25.19 20.6 69.1 44 8.1 46.5 20.83 0.82
11:53 1024 30.24 853 25.19 20.7 69.2 44 8.2 46.8 20.89 0.822
11:54 1024 30.24 853 25.19 20.5 69 44 8.2 46.7 20.79 0.819
11:55 1024 30.24 853 25.19 20.5 68.9 43 7.8 46 20.82 0.82
11:56 1024 30.24 853 25.19 20.5 68.9 44 8.1 46.7 20.82 0.82
11:57 1024 30.24 853 25.19 20.5 69 46 8.6 47.5 20.84 0.82
11:58 1024 30.24 853 25.19 20.6 69.1 44 8.2 46.7 20.87 0.822
11:59 1024 30.24 853 25.19 20.5 69 46 8.5 47.3 20.82 0.82
12:00 1024 30.24 853 25.19 20.5 68.9 51 10.2 50.3 20.82 0.82
12:01 1024 30.24 853 25.19 20.6 69.1 44 8.1 46.6 20.86 0.821
12:02 1024 30.24 853 25.19 20.8 69.4 47 9 48.3 20.96 0.825
12:03 1024 30.24 853 25.19 20.9 69.6 48 9.7 49.4 21.12 0.831
12:04 1024 30.24 853 25.19 21 69.7 44 8.5 47.3 21.22 0.835
12:05 1024 30.24 853 25.19 21.1 69.9 46 9.2 48.6 21.33 0.84
12:06 1024 30.24 853 25.19 21.2 70.1 44 8.7 47.6 21.47 0.845
12:07 1024 30.24 853 25.19 21.2 70.2 47 9.6 49.4 21.62 0.851
12:08 1024 30.24 853 25.19 21.4 70.5 44 8.6 47.6 21.66 0.853
12:09 1024 30.24 853 25.19 21.3 70.4 45 9.2 48.6 21.66 0.853
12:10 1024 30.24 853 25.19 21.4 70.5 48 10 50 21.65 0.852
12:11 1024 30.24 853 25.19 21.5 70.6 44 8.8 47.8 21.74 0.856
12:12 1024 30.24 853 25.19 21.3 70.4 47 9.7 49.5 21.65 0.852
12:13 1024 30.24 853 25.19 21.2 70.1 46 9.2 48.6 21.48 0.846
12:14 1024 30.24 853 25.19 21 69.9 45 8.9 48.1 21.3 0.839
12:15 1024 30.24 853 25.19 21 69.8 49 10 50 21.27 0.837
12:16 1024 30.24 853 25.19 21.1 69.9 49 10.1 50.1 21.4 0.843
12:17 1024 30.24 853 25.19 21.1 70 44 8.5 47.4 21.48 0.846
12:18 1024 30.24 853 25.19 21.1 69.9 44 8.5 47.3 21.48 0.846
12:19 1024 30.24 853 25.19 21.1 70 43 8.3 46.9 21.54 0.848
12:20 1024 30.24 853 25.19 21.2 70.1 42 8 46.4 21.63 0.852
12:21 1024 30.24 853 25.19 21.1 70 46 9.2 48.6 21.59 0.85
12:22 1024 30.24 853 25.19 21.2 70.1 45 9 48.1 21.58 0.85
12:23 1024 30.24 853 25.19 21.2 70.2 43 8.2 46.7 21.59 0.85
12:24 1024 30.24 853 25.19 21.3 70.3 42 8.1 46.5 21.49 0.846
12:25 1024 30.24 853 25.19 21.3 70.4 42 8.1 46.5 21.41 0.843
12:26 1024 30.24 853 25.19 21.3 70.3 43 8.5 47.3 21.44 0.844
12:27 1024 30.24 853 25.19 21.4 70.6 43 8.7 47.6 21.65 0.852
12:28 1024 30.24 853 25.19 21.5 70.8 43 8.7 47.6 21.73 0.856
12:29 1024 30.24 853 25.19 21.6 70.8 45 9.2 48.5 21.75 0.856
12:30 1024 30.24 853 25.19 21.6 71 41 8 46.4 21.76 0.857
12:31 1024 30.24 853 25.19 21.7 71 40 7.7 45.8 21.79 0.858
12:32 1024 30.24 853 25.19 21.6 71 45 9.4 48.9 21.8 0.858
12:33 1024 30.24 853 25.19 21.7 71.1 41 8 46.5 21.87 0.861
12:34 1024 30.24 853 25.19 21.8 71.2 44 9 48.2 21.83 0.859
12:35 1024 30.24 853 25.19 21.6 70.9 41 8.1 46.6 21.71 0.855
12:36 1024 30.24 853 25.19 21.6 70.8 41 8 46.5 21.65 0.852
12:37 1024 30.24 853 25.19 21.6 70.9 42 8.1 46.7 21.8 0.858
12:38 1024 30.24 853 25.19 21.7 71 41 8 46.5 21.89 0.862
12:39 1024 30.24 853 25.19 21.6 70.9 39 7.2 45 21.95 0.864
12:40 1024 30.24 853 25.19 21.6 70.9 40 7.7 45.9 22 0.866
12:41 1024 30.24 853 25.19 21.6 70.9 47 10 50 22.07 0.869
12:42 1024 30.24 853 25.19 21.8 71.2 45 9.3 48.8 22.2 0.874
12:43 1024 30.24 853 25.19 21.9 71.5 41 8.4 47 22.25 0.876
12:44 1024 30.24 853 25.19 22.1 71.7 47 10.3 50.5 22.39 0.881
12:45 1024 30.24 853 25.19 22.2 71.9 39 7.9 46.2 22.49 0.885
12:46 1024 30.24 853 25.19 22.2 71.9 42 8.9 47.9 22.48 0.885
12:47 1024 30.24 853 25.19 22.1 71.8 42 8.9 48 22.47 0.885
12:48 1024 30.24 853 25.19 22.3 72.1 40 8.3 47 22.62 0.891
12:49 1024 30.24 853 25.19 22.4 72.3 39 8.1 46.6 22.72 0.894
12:50 1024 30.24 853 25.19 22.2 72 38 7.6 45.6 22.54 0.887
12:51 1024 30.24 853 25.19 22.1 71.8 45 9.9 49.8 22.48 0.885
12:52 1024 30.24 853 25.19 22.2 71.9 38 7.6 45.6 22.55 0.888
12:53 1024 30.24 853 25.19 22.2 72 40 8.1 46.5 22.56 0.888
12:54 1024 30.24 853 25.19 22.3 72.2 39 8 46.4 22.68 0.893
12:55 1024 30.24 853 25.19 22.5 72.5 38 7.5 45.5 22.84 0.899
12:56 1024 30.24 853 25.19 22.7 72.8 40 8.6 47.4 22.97 0.904
12:57 1024 30.24 853 25.19 22.7 72.8 39 8.4 47.1 22.99 0.905
12:58 1024 30.24 853 25.19 22.6 72.7 40 8.7 47.6 22.99 0.905
12:59 1024 30.24 853 25.19 22.5 72.5 39 8 46.3 22.95 0.904
13:00 1024 30.24 853 25.19 22.6 72.6 34 6.2 43.2 22.98 0.905
13:01 1024 30.24 853 25.19 22.6 72.7 37 7.4 45.3 23 0.906
13:02 1024 30.24 853 25.19 22.7 72.9 41 9.1 48.3 23.04 0.907
13:03 1024 30.24 853 25.19 22.8 73 41 8.9 48 23.06 0.908
13:04 1024 30.24 853 25.19 22.9 73.2 36 7.3 45.2 23.15 0.911
13:05 1024 30.24 853 25.19 23 73.3 36 7.5 45.4 23.12 0.91
13:06 1024 30.24 853 25.19 22.9 73.1 39 8.2 46.8 22.98 0.905
13:07 1024 30.24 853 25.19 22.8 73 38 8 46.3 23 0.906
13:08 1024 30.24 853 25.19 22.9 73.3 38 8.1 46.5 23.19 0.913
13:09 1024 30.24 853 25.19 23.1 73.5 36 7.4 45.4 23.39 0.921
13:10 1023 30.21 853 25.19 23 73.4 37 7.6 45.7 23.37 0.92
13:11 1024 30.24 853 25.19 23.1 73.5 41 9.1 48.4 23.46 0.924
13:12 1023 30.21 853 25.19 23.2 73.8 40 9.2 48.5 23.54 0.927
13:13 1023 30.21 853 25.19 23.3 73.9 35 7 44.5 23.39 0.921
13:14 1023 30.21 853 25.19 23.2 73.7 36 7.4 45.3 23.24 0.915
13:15 1023 30.21 853 25.19 23.1 73.5 35 7 44.7 23.2 0.913
13:16 1023 30.21 853 25.19 23 73.4 37 7.8 46 23.25 0.915
13:17 1023 30.21 853 25.19 23.1 73.5 43 9.9 49.8 23.29 0.917
13:18 1023 30.21 853 25.19 23.2 73.7 37 8 46.5 23.42 0.922
13:19 1023 30.21 853 25.19 23.2 73.7 41 9.4 49 23.32 0.918
13:20 1023 30.21 853 25.19 23.1 73.6 34 6.5 43.7 23.25 0.915
13:21 1023 30.21 853 25.19 23.1 73.6 37 7.7 45.9 23.29 0.917
13:22 1023 30.21 852 25.16 23.1 73.6 36 7.4 45.4 23.31 0.918
13:23 1023 30.21 852 25.16 23 73.3 34 6.7 44 23.24 0.915
13:24 1023 30.21 852 25.16 22.9 73.2 35 7 44.6 23.24 0.915
13:25 1023 30.21 852 25.16 23 73.5 32 5.8 42.4 23.38 0.92
13:26 1023 30.21 852 25.16 23.2 73.8 33 6.1 43 23.49 0.925
13:27 1023 30.21 852 25.16 23.4 74.1 34 6.7 44 23.72 0.934
13:28 1023 30.21 852 25.16 23.6 74.5 36 7.7 45.9 23.99 0.944
13:29 1023 30.21 852 25.16 23.7 74.6 33 6.8 44.3 24.12 0.95
13:30 1023 30.21 852 25.16 23.7 74.6 35 7.5 45.5 24.01 0.945
13:31 1023 30.21 852 25.16 23.6 74.6 33 6.5 43.8 23.88 0.94
13:32 1023 30.21 852 25.16 23.6 74.4 32 5.9 42.7 23.84 0.939
13:33 1023 30.21 852 25.16 23.6 74.5 33 6.6 43.9 23.91 0.941
13:34 1023 30.21 852 25.16 23.6 74.6 35 7.3 45.2 23.96 0.943
13:35 1023 30.21 852 25.16 23.7 74.7 38 8.6 47.4 24.03 0.946
13:36 1023 30.21 852 25.16 23.8 74.9 34 7.2 44.9 24.13 0.95
13:37 1023 30.21 852 25.16 23.9 75 35 7.5 45.5 24.09 0.948
13:38 1023 30.21 852 25.16 23.9 75 34 7.1 44.8 24.08 0.948
13:39 1023 30.21 852 25.16 23.8 74.8 33 6.6 43.9 23.95 0.943
13:40 1023 30.21 852 25.16 23.7 74.6 37 8.4 47.2 23.77 0.936
13:41 1023 30.21 852 25.16 23.7 74.6 32 6.4 43.5 23.75 0.935
13:42 1023 30.21 852 25.16 23.7 74.6 35 7.3 45.2 23.78 0.936
13:43 1023 30.21 852 25.16 23.7 74.7 39 9.3 48.8 23.87 0.94
13:44 1023 30.21 852 25.16 23.8 74.8 36 8 46.5 23.87 0.94
13:45 1023 30.21 852 25.16 23.9 75 40 9.7 49.5 24.05 0.947
13:46 1023 30.21 852 25.16 24.1 75.3 37 8.8 47.9 24.31 0.957
13:47 1023 30.21 852 25.16 24.2 75.5 35 8 46.4 24.43 0.962
13:48 1023 30.21 852 25.16 24.1 75.3 31 6.2 43.2 24.31 0.957
13:49 1023 30.21 852 25.16 23.9 75.1 32 6.3 43.4 24.05 0.947
13:50 1023 30.21 852 25.16 23.8 74.9 31 6.1 42.9 23.95 0.943
13:51 1023 30.21 852 25.16 23.9 74.9 34 7.3 45.2 24.09 0.948
13:52 1023 30.21 852 25.16 24 75.2 33 6.9 44.4 24.22 0.954
13:53 1023 30.21 852 25.16 24.1 75.3 33 7.1 44.8 24.21 0.953
13:54 1023 30.21 852 25.16 24.1 75.3 31 6 42.9 24.22 0.954
13:55 1023 30.21 852 25.16 24.1 75.3 31 6.3 43.4 24.35 0.959
13:56 1023 30.21 852 25.16 24.2 75.5 36 8.4 47.1 24.51 0.965
13:57 1023 30.21 852 25.16 24.3 75.8 33 7.3 45.2 24.63 0.97
13:58 1023 30.21 852 25.16 24.4 75.8 36 8.4 47.1 24.66 0.971
13:59 1023 30.21 852 25.16 24.3 75.8 31 6.3 43.4 24.73 0.974
14:00 1023 30.21 852 25.16 24.2 75.6 32 6.9 44.4 24.7 0.972
14:01 1023 30.21 852 25.16 24.3 75.7 37 9 48.3 24.74 0.974
14:02 1023 30.21 852 25.16 24.3 75.8 40 10 50 24.71 0.973
14:03 1023 30.21 852 25.16 24.2 75.6 34 7.5 45.5 24.55 0.967
14:04 1023 30.21 852 25.16 24.1 75.5 37 8.6 47.5 24.38 0.96
14:05 1023 30.21 852 25.16 24.2 75.5 40 10 49.9 24.42 0.961
14:06 1023 30.21 852 25.16 24.3 75.7 32 6.9 44.4 24.52 0.965
14:07 1023 30.21 852 25.16 24.4 75.9 33 7.2 44.9 24.69 0.972
14:08 1023 30.21 852 25.16 24.5 76.1 33 7.5 45.4 24.67 0.971
14:09 1023 30.21 852 25.16 24.6 76.2 36 8.9 48 24.71 0.973
14:10 1023 30.21 852 25.16 24.7 76.5 33 7.5 45.4 24.9 0.98
14:11 1023 30.21 852 25.16 24.9 76.7 34 8.2 46.7 24.98 0.983
14:12 1023 30.21 852 25.16 24.7 76.5 36 8.7 47.6 24.97 0.983
14:13 1023 30.21 852 25.16 24.6 76.3 32 7.3 45.1 24.94 0.982
14:14 1023 30.21 852 25.16 24.7 76.4 36 9 48.2 24.88 0.98
14:15 1023 30.21 852 25.16 24.7 76.4 37 9 48.3 24.84 0.978
14:16 1023 30.21 852 25.16 24.8 76.6 32 7.1 44.8 24.98 0.983
14:17 1023 30.21 852 25.16 24.7 76.5 31 6.7 44 24.95 0.982
14:18 1023 30.21 852 25.16 24.6 76.2 35 8.5 47.2 24.77 0.975
14:19 1023 30.21 852 25.16 24.7 76.4 34 7.8 46.1 24.92 0.981
14:20 1023 30.21 852 25.16 24.9 76.7 37 9.2 48.6 25.16 0.991
14:21 1023 30.21 852 25.16 24.9 76.8 33 7.6 45.6 25.28 0.995
14:22 1023 30.21 852 25.16 24.9 76.8 31 6.8 44.3 25.16 0.991
14:23 1023 30.21 852 25.16 24.7 76.5 32 7.3 45.1 24.9 0.98
14:24 1023 30.21 852 25.16 24.7 76.4 38 9.5 49.1 24.95 0.982
14:25 1023 30.21 852 25.16 24.8 76.6 36 8.9 48 25.13 0.989
14:26 1023 30.21 852 25.16 24.8 76.7 32 7.2 44.9 25.06 0.987
14:27 1023 30.21 852 25.16 24.8 76.6 39 10 50 25 0.984
14:28 1023 30.21 852 25.16 24.8 76.6 31 6.9 44.4 24.89 0.98
14:29 1023 30.21 852 25.16 24.6 76.3 38 9.5 49.2 24.83 0.978
14:30 1023 30.21 852 25.16 24.6 76.3 33 7.6 45.6 24.8 0.976
14:31 1023 30.21 852 25.16 24.5 76.1 33 7.4 45.3 24.72 0.973
14:32 1023 30.21 852 25.16 24.5 76.1 33 7.3 45.1 24.72 0.973
14:33 1023 30.21 852 25.16 24.6 76.3 32 7 44.5 24.88 0.98
14:34 1023 30.21 852 25.16 24.7 76.5 33 7.6 45.7 24.98 0.983
14:35 1023 30.21 852 25.16 24.7 76.4 32 7.2 45 25.01 0.985
14:36 1023 30.21 852 25.16 24.6 76.2 33 7.6 45.7 24.99 0.984
14:37 1023 30.21 852 25.16 24.5 76.1 32 7 44.6 25.01 0.985
14:38 1023 30.21 852 25.16 24.6 76.3 33 7.6 45.6 25.09 0.988
14:39 1023 30.21 852 25.16 24.7 76.4 36 9 48.2 25.19 0.992
14:40 1023 30.21 852 25.16 24.9 76.8 33 7.8 46.1 25.34 0.998
14:41 1023 30.21 852 25.16 25.1 77.2 32 7.5 45.5 25.45 1.002
14:42 1023 30.21 852 25.16 25.2 77.4 35 8.8 47.9 25.53 1.005
14:43 1023 30.21 852 25.16 25.2 77.4 33 8.1 46.6 25.45 1.002
14:44 1023 30.21 852 25.16 25.1 77.1 34 8.3 46.9 25.23 0.993
14:45 1023 30.21 852 25.16 25 77 32 7.6 45.6 25.2 0.992
14:46 1023 30.21 852 25.16 25 77.1 35 8.9 48 25.24 0.994
14:47 1023 30.21 852 25.16 25.1 77.2 35 9 48.1 25.3 0.996
14:48 1023 30.21 852 25.16 25.2 77.4 33 8.2 46.8 25.42 1.001
14:49 1023 30.21 852 25.16 25.2 77.4 36 9.1 48.5 25.46 1.002
14:50 1022 30.18 852 25.16 25.3 77.5 31 7.3 45.1 25.5 1.004
14:51 1022 30.18 852 25.16 25.3 77.5 34 8.5 47.2 25.56 1.006
14:52 1022 30.18 852 25.16 25.2 77.4 30 6.7 44 25.55 1.006
14:53 1022 30.18 852 25.16 25 77.1 32 7.3 45.2 25.4 1
14:54 1022 30.18 852 25.16 25 77 32 7.2 45 25.35 0.998
14:55 1022 30.18 852 25.16 25 77.1 31 7.1 44.7 25.36 0.998
14:56 1022 30.18 852 25.16 25.1 77.1 32 7.2 45 25.44 1.002
14:57 1022 30.18 852 25.16 25 77.1 30 6.5 43.7 25.43 1.001
14:58 1022 30.18 852 25.16 25.1 77.2 30 6.5 43.6 25.35 0.998
14:59 1022 30.18 852 25.16 25.2 77.4 35 9.1 48.3 25.36 0.998
15:00 1022 30.18 852 25.16 25.4 77.7 33 8.1 46.6 25.59 1.007
15:01 1022 30.18 852 25.16 25.5 77.9 29 6.4 43.6 25.76 1.014
15:02 1022 30.18 852 25.16 25.5 77.9 31 7.2 45 25.73 1.013
15:03 1022 30.18 852 25.16 25.4 77.8 33 8.2 46.7 25.72 1.013
15:04 1022 30.18 852 25.16 25.4 77.7 32 7.6 45.7 25.71 1.012
15:05 1022 30.18 852 25.16 25.4 77.7 36 9.5 49.2 25.71 1.012
15:06 1022 30.18 852 25.16 25.4 77.8 33 8.3 47 25.72 1.013
15:07 1022 30.18 852 25.16 25.4 77.6 30 6.8 44.3 25.68 1.011
15:08 1022 30.18 852 25.16 25.3 77.5 32 7.4 45.4 25.6 1.008
15:09 1022 30.18 852 25.16 25.4 77.8 31 7.5 45.5 25.7 1.012
15:10 1022 30.18 851 25.13 25.6 78 32 7.7 45.9 25.85 1.018
15:11 1022 30.18 851 25.13 25.8 78.4 35 9.3 48.7 26.02 1.024
15:12 1022 30.18 851 25.13 25.8 78.4 33 8.5 47.2 26.1 1.028
15:13 1022 30.18 851 25.13 25.8 78.4 32 8.2 46.7 25.99 1.023
15:14 1022 30.18 851 25.13 25.6 78 35 9.3 48.8 25.88 1.019
15:15 1022 30.18 851 25.13 25.6 78.1 32 8.1 46.7 25.96 1.022
15:16 1022 30.18 851 25.13 25.8 78.4 29 6.7 44 26 1.024
15:17 1022 30.18 851 25.13 25.8 78.4 35 9.2 48.5 25.95 1.022
15:18 1022 30.18 851 25.13 25.8 78.4 29 6.9 44.4 26.01 1.024
15:19 1022 30.18 851 25.13 25.6 78.1 30 7.1 44.8 25.84 1.017
15:20 1022 30.18 851 25.13 25.5 77.8 30 6.8 44.3 25.74 1.013
15:21 1022 30.18 851 25.13 25.5 77.9 32 7.7 45.9 25.77 1.015
15:22 1022 30.18 851 25.13 25.6 78 29 6.4 43.6 25.76 1.014
15:23 1022 30.18 851 25.13 25.6 78.1 30 6.9 44.5 25.73 1.013
15:24 1022 30.18 851 25.13 25.7 78.3 30 7.1 44.7 25.77 1.015
15:25 1022 30.18 851 25.13 25.9 78.5 31 7.7 45.8 25.91 1.02
15:26 1022 30.18 851 25.13 25.9 78.7 28 6.3 43.3 26.08 1.027
15:27 1022 30.18 851 25.13 26 78.7 29 6.9 44.3 26.07 1.026
15:28 1022 30.18 851 25.13 26 78.8 31 7.8 46 26.12 1.028
15:29 1022 30.18 851 25.13 26 78.8 35 9.7 49.4 26.26 1.034
15:30 1022 30.18 851 25.13 26.1 79.1 31 7.9 46.2 26.36 1.038
15:31 1022 30.18 851 25.13 26.1 79 27 5.9 42.6 26.34 1.037
15:32 1022 30.18 851 25.13 26.1 78.9 29 6.7 44.1 26.23 1.033
15:33 1022 30.18 851 25.13 26 78.7 30 7.5 45.5 26.16 1.03
15:34 1022 30.18 851 25.13 25.7 78.3 30 7.3 45.1 26.01 1.024
15:35 1022 30.18 851 25.13 25.7 78.3 30 7 44.6 26.04 1.025
15:36 1022 30.18 851 25.13 25.7 78.2 29 6.8 44.3 25.99 1.023
15:37 1022 30.18 851 25.13 25.6 78.1 31 7.7 45.9 25.97 1.022
15:38 1022 30.18 851 25.13 25.6 78 31 7.4 45.3 25.96 1.022
15:39 1022 30.18 851 25.13 25.6 78 29 6.7 44 25.96 1.022
15:40 1022 30.18 851 25.13 25.6 78.1 32 7.7 45.9 26.02 1.024
15:41 1022 30.18 851 25.13 25.7 78.3 31 7.7 45.8 26.09 1.027
15:42 1022 30.18 851 25.13 25.8 78.5 31 7.7 45.9 26.18 1.031
15:43 1022 30.18 851 25.13 25.8 78.4 29 6.7 44 26.16 1.03
15:44 1022 30.18 851 25.13 25.7 78.3 31 7.6 45.8 26.12 1.028
15:45 1022 30.18 851 25.13 25.7 78.3 36 9.8 49.7 26.11 1.028
15:46 1022 30.18 851 25.13 25.8 78.4 30 7.1 44.8 26.17 1.03
15:47 1022 30.18 851 25.13 25.7 78.3 28 6 42.8 26.11 1.028
15:48 1022 30.18 851 25.13 25.7 78.3 31 7.4 45.3 26.12 1.028
15:49 1022 30.18 851 25.13 25.9 78.6 29 6.9 44.3 26.25 1.033
15:50 1022 30.18 851 25.13 25.9 78.6 31 7.9 46.3 26.32 1.036
15:51 1022 30.18 851 25.13 25.9 78.6 28 6.3 43.4 26.27 1.034
15:52 1022 30.18 851 25.13 25.9 78.5 28 6.2 43.1 26.15 1.03
15:53 1022 30.18 851 25.13 25.9 78.6 31 7.9 46.3 26.24 1.033
15:54 1022 30.18 851 25.13 26 78.8 30 7.1 44.8 26.34 1.037
15:55 1022 30.18 851 25.13 26 78.8 30 7.2 45 26.46 1.042
15:56 1022 30.18 851 25.13 26.2 79.1 29 7 44.5 26.53 1.044
15:57 1022 30.18 851 25.13 26.1 79 28 6.7 44 26.34 1.037
15:58 1022 30.18 851 25.13 26 78.8 28 6.2 43.2 26.23 1.033
15:59 1022 30.18 851 25.13 26 78.7 32 8.1 46.5 26.19 1.031
16:00 1022 30.18 851 25.13 26 78.8 29 6.7 44.1 26.19 1.031
16:01 1022 30.18 851 25.13 26 78.8 31 7.7 45.9 26.25 1.033
16:02 1022 30.18 851 25.13 26 78.9 28 6.4 43.6 26.27 1.034
16:03 1022 30.18 851 25.13 26.1 78.9 31 7.7 45.9 26.35 1.037
16:04 1022 30.18 851 25.13 26.2 79.1 28 6.5 43.7 26.42 1.04
16:05 1022 30.18 851 25.13 26.1 79 30 7.7 45.8 26.31 1.036
16:06 1022 30.18 851 25.13 26.1 79 27 5.8 42.5 26.37 1.038
16:07 1022 30.18 851 25.13 26.2 79.2 28 6.6 43.9 26.46 1.042
16:08 1022 30.18 851 25.13 26.3 79.3 30 7.6 45.7 26.47 1.042
16:09 1022 30.18 851 25.13 26.3 79.3 29 7.1 44.8 26.46 1.042
16:10 1022 30.18 851 25.13 26.3 79.3 28 6.4 43.5 26.41 1.04
16:11 1022 30.18 851 25.13 26.3 79.3 31 8.3 46.9 26.54 1.045
16:12 1022 30.18 851 25.13 26.4 79.5 29 7 44.6 26.65 1.049
16:13 1022 30.18 851 25.13 26.4 79.6 29 7.2 44.9 26.71 1.052
16:14 1022 30.18 851 25.13 26.4 79.5 27 6.3 43.3 26.67 1.05
16:15 1022 30.18 851 25.13 26.3 79.3 28 6.5 43.7 26.56 1.046
16:16 1022 30.18 851 25.13 26.2 79.1 29 7.2 44.9 26.47 1.042
16:17 1022 30.18 851 25.13 26.2 79.1 27 5.9 42.6 26.53 1.044
16:18 1022 30.18 851 25.13 26.2 79.1 32 8.3 47 26.6 1.047
16:19 1022 30.18 851 25.13 26.3 79.4 28 6.5 43.7 26.74 1.053
16:20 1022 30.18 851 25.13 26.5 79.8 27 6.5 43.7 26.9 1.059
16:21 1022 30.18 851 25.13 26.7 80.1 30 8.1 46.6 26.96 1.061
16:22 1022 30.18 851 25.13 26.8 80.2 28 7 44.6 26.96 1.061
16:23 1022 30.18 851 25.13 26.7 80 28 6.7 44.1 26.76 1.054
16:24 1022 30.18 851 25.13 26.4 79.6 29 7.3 45.2 26.52 1.044
16:25 1022 30.18 851 25.13 26.4 79.4 29 7.2 45 26.53 1.044
16:26 1022 30.18 851 25.13 26.4 79.5 29 7 44.7 26.49 1.043
16:27 1022 30.18 851 25.13 26.4 79.5 28 6.7 44.1 26.54 1.045
16:28 1022 30.18 851 25.13 26.4 79.5 32 8.7 47.6 26.6 1.047
16:29 1022 30.18 851 25.13 26.4 79.6 31 8.1 46.6 26.75 1.053
16:30 1022 30.18 851 25.13 26.3 79.4 30 7.5 45.5 26.62 1.048
16:31 1022 30.18 851 25.13 26.3 79.3 28 6.6 43.9 26.56 1.046
16:32 1022 30.18 851 25.13 26.2 79.1 28 6.5 43.7 26.45 1.041
16:33 1022 30.18 851 25.13 26.2 79.1 26 5.6 42.1 26.46 1.042
16:34 1022 30.18 851 25.13 26.3 79.3 26 5.5 41.9 26.53 1.044
16:35 1022 30.18 851 25.13 26.4 79.5 25 4.9 40.8 26.6 1.047
16:36 1022 30.18 851 25.13 26.4 79.6 28 6.7 44.1 26.65 1.049
16:37 1022 30.18 851 25.13 26.4 79.5 30 7.9 46.2 26.61 1.048
16:38 1022 30.18 851 25.13 26.4 79.6 30 7.8 46 26.72 1.052
16:39 1022 30.18 851 25.13 26.6 79.8 26 6 42.8 26.91 1.059
16:40 1022 30.18 851 25.13 26.6 79.9 25 5 41 26.95 1.061
16:41 1022 30.18 851 25.13 26.6 79.9 27 6.4 43.6 26.93 1.06
16:42 1022 30.18 851 25.13 26.7 80 26 5.7 42.3 26.96 1.061
16:43 1022 30.18 851 25.13 26.7 80.1 26 5.8 42.5 26.93 1.06
16:44 1022 30.18 851 25.13 26.8 80.2 28 7.1 44.7 26.93 1.06
16:45 1022 30.18 851 25.13 26.8 80.2 28 7.2 44.9 26.97 1.062
16:46 1022 30.18 851 25.13 26.7 80 27 6.5 43.7 26.93 1.06
16:47 1022 30.18 851 25.13 26.6 79.8 28 7.1 44.7 26.84 1.057
16:48 1022 30.18 851 25.13 26.5 79.7 27 6.2 43.2 26.83 1.056
16:49 1022 30.18 851 25.13 26.4 79.6 25 5.3 41.5 26.76 1.054
16:50 1022 30.18 851 25.13 26.3 79.4 28 6.7 44 26.73 1.052
16:51 1022 30.18 851 25.13 26.4 79.5 30 7.5 45.5 26.83 1.056
16:52 1022 30.18 851 25.13 26.6 79.8 28 6.9 44.4 26.99 1.063
16:53 1022 30.18 851 25.13 26.6 79.8 29 7.1 44.8 26.95 1.061
16:54 1022 30.18 851 25.13 26.5 79.6 29 7.5 45.5 26.87 1.058
16:55 1022 30.18 851 25.13 26.5 79.7 31 8.4 47.2 26.9 1.059
16:56 1022 30.18 851 25.13 26.6 79.8 30 7.7 45.9 27.01 1.063
16:57 1022 30.18 851 25.13 26.6 79.8 28 6.9 44.4 26.94 1.061
16:58 1022 30.18 851 25.13 26.6 79.9 27 6.5 43.6 26.94 1.061
16:59 1022 30.18 851 25.13 26.7 80 26 6.1 42.9 26.97 1.062
17:00 1022 30.18 851 25.13 26.7 80 30 7.8 46 27 1.063
17:01 1022 30.18 851 25.13 26.8 80.2 28 7.1 44.8 27.12 1.068
17:02 1022 30.18 851 25.13 26.9 80.5 26 6.1 43 27.15 1.069
17:03 1022 30.18 851 25.13 26.9 80.4 28 7.4 45.3 27.17 1.07
17:04 1022 30.18 851 25.13 27 80.6 26 6.1 43.1 27.23 1.072
17:05 1022 30.18 851 25.13 27.1 80.7 30 8.2 46.8 27.29 1.074
17:06 1022 30.18 851 25.13 27.1 80.8 25 5.7 42.3 27.29 1.074
17:07 1022 30.18 851 25.13 27.1 80.7 28 7.5 45.4 27.21 1.071
17:08 1022 30.18 851 25.13 27.1 80.7 26 6.3 43.4 27.21 1.071
17:09 1022 30.18 851 25.13 27 80.7 28 7.1 44.7 27.29 1.074
17:10 1022 30.18 851 25.13 27.2 80.9 27 6.9 44.4 27.43 1.08
17:11 1022 30.18 851 25.13 27.3 81.1 29 8 46.3 27.4 1.079
17:12 1022 30.18 851 25.13 27.3 81.1 24 5.3 41.5 27.33 1.076
17:13 1022 30.18 851 25.13 27.4 81.2 27 6.9 44.4 27.34 1.076
17:14 1022 30.18 851 25.13 27.4 81.4 28 7.5 45.5 27.46 1.081
17:15 1022 30.18 851 25.13 27.5 81.5 25 6 42.9 27.52 1.083
17:16 1022 30.18 851 25.13 27.4 81.3 25 5.7 42.2 27.54 1.084
17:17 1022 30.18 851 25.13 27.3 81.1 27 6.8 44.3 27.52 1.083
17:18 1022 30.18 851 25.13 27.2 81 24 5.1 41.1 27.56 1.085
17:19 1022 30.18 851 25.13 27.1 80.7 26 5.9 42.7 27.45 1.081
17:20 1022 30.18 851 25.13 27 80.5 25 5.4 41.6 27.43 1.08
17:21 1022 30.18 851 25.13 27 80.6 26 6.2 43.2 27.46 1.081
17:22 1022 30.18 851 25.13 27.2 80.9 24 5.1 41.2 27.63 1.088
17:23 1022 30.18 851 25.13 27.3 81.1 27 7.1 44.7 27.64 1.088
17:24 1022 30.18 851 25.13 27.3 81.1 25 5.6 42 27.64 1.088
17:25 1022 30.18 851 25.13 27.4 81.4 27 7.1 44.8 27.64 1.088
17:26 1022 30.18 851 25.13 27.5 81.5 25 6.1 43 27.73 1.092
17:27 1022 30.18 851 25.13 27.6 81.6 25 5.9 42.6 27.65 1.089
17:28 1022 30.18 851 25.13 27.6 81.6 25 6.2 43.2 27.64 1.088
17:29 1022 30.18 851 25.13 27.4 81.3 27 6.8 44.3 27.62 1.087
17:30 1022 30.18 851 25.13 27.2 80.9 23 4.7 40.5 27.56 1.085
17:31 1022 30.18 851 25.13 27.2 80.9 25 5.5 42 27.56 1.085
17:32 1022 30.18 851 25.13 27.3 81.2 26 6.5 43.7 27.75 1.093
17:33 1022 30.18 851 25.13 27.5 81.4 24 5.4 41.7 27.91 1.099
17:34 1022 30.18 851 25.13 27.5 81.4 26 6.7 44.1 27.95 1.1
17:35 1022 30.18 851 25.13 27.6 81.7 25 5.9 42.7 28.04 1.104
17:36 1022 30.18 851 25.13 27.7 81.8 26 6.8 44.2 27.98 1.102
17:37 1022 30.18 851 25.13 27.7 81.9 26 7 44.6 27.96 1.101
17:38 1022 30.18 851 25.13 27.8 82 23 5.3 41.5 27.92 1.099
17:39 1022 30.18 851 25.13 27.8 82 25 6 42.7 27.87 1.097
17:40 1022 30.18 851 25.13 27.8 82 27 7.6 45.6 27.85 1.096
17:41 1022 30.18 851 25.13 27.7 81.9 23 5.2 41.4 27.8 1.094
17:42 1022 30.18 851 25.13 27.7 81.8 22 4.5 40.1 27.69 1.09
17:43 1022 30.18 851 25.13 27.7 81.8 22 4.2 39.6 27.65 1.089
17:44 1022 30.18 851 25.13 27.6 81.8 24 5.3 41.5 27.74 1.092
17:45 1022 30.18 851 25.13 27.7 81.9 25 6 42.7 27.81 1.095
17:46 1022 30.18 851 25.13 27.9 82.1 23 5.2 41.4 27.97 1.101
17:47 1022 30.18 851 25.13 27.9 82.2 25 6.5 43.7 27.89 1.098
17:48 1022 30.18 851 25.13 27.8 82 23 4.9 40.8 27.81 1.095
17:49 1022 30.18 851 25.13 27.6 81.7 23 4.8 40.6 27.66 1.089
17:50 1022 30.18 851 25.13 27.5 81.6 27 7.4 45.3 27.65 1.089
17:51 1021 30.15 851 25.13 27.4 81.3 24 5.6 42 27.61 1.087
17:52 1021 30.15 851 25.13 27.4 81.3 26 6.7 44 27.59 1.086
17:53 1021 30.15 851 25.13 27.5 81.4 23 4.9 40.9 27.69 1.09
17:54 1021 30.15 851 25.13 27.6 81.6 24 5.7 42.2 27.81 1.095
17:55 1021 30.15 851 25.13 27.6 81.7 23 4.9 40.8 27.92 1.099
17:56 1021 30.15 851 25.13 27.6 81.8 29 8.1 46.5 28.03 1.104
17:57 1021 30.15 851 25.13 27.6 81.7 23 5.1 41.1 28.07 1.105
17:58 1021 30.15 851 25.13 27.7 81.8 23 4.8 40.7 28.1 1.106
17:59 1021 30.15 851 25.13 27.8 82.1 27 7.6 45.6 28.05 1.104
18:00 1021 30.15 851 25.13 27.8 82.1 25 6.1 43 28.04 1.104
18:01 1021 30.15 851 25.13 27.8 82 24 5.9 42.6 28.06 1.105
18:02 1021 30.15 851 25.13 27.8 82 27 7.2 44.9 28.11 1.107
18:03 1021 30.15 851 25.13 27.8 82.1 25 6.2 43.2 28.19 1.11
18:04 1021 30.15 851 25.13 27.9 82.1 24 5.5 41.8 28.17 1.109
18:05 1021 30.15 851 25.13 27.9 82.2 25 6.6 44 28.25 1.112
18:06 1021 30.15 851 25.13 27.9 82.2 23 5.5 41.8 28.26 1.113
18:07 1021 30.15 851 25.13 27.8 82.1 22 4.5 40.2 28.05 1.104
18:08 1021 30.15 851 25.13 27.7 81.9 22 4.1 39.3 27.86 1.097
18:09 1021 30.15 851 25.13 27.7 81.8 23 5 41 27.85 1.096
18:10 1021 30.15 851 25.13 27.7 81.9 23 4.9 40.8 28.02 1.103
18:11 1021 30.15 851 25.13 27.8 82.1 23 5 41.1 28.16 1.109
18:12 1021 30.15 851 25.13 27.9 82.2 20 3 37.4 28.24 1.112
18:13 1021 30.15 851 25.13 27.9 82.1 24 5.9 42.6 28.2 1.11
18:14 1021 30.15 851 25.13 27.8 82.1 27 7.4 45.3 28.22 1.111
18:15 1021 30.15 851 25.13 27.9 82.3 24 5.9 42.6 28.24 1.112
18:16 1021 30.15 851 25.13 27.9 82.2 22 4.5 40.1 28.08 1.106
18:17 1021 30.15 851 25.13 27.8 82.1 23 5.4 41.7 27.94 1.1
18:18 1021 30.15 851 25.13 27.7 81.8 24 5.5 41.8 27.83 1.096
18:19 1021 30.15 851 25.13 27.6 81.6 22 4.2 39.5 27.74 1.092
18:20 1021 30.15 851 25.13 27.5 81.6 22 4 39.3 27.74 1.092
18:21 1021 30.15 851 25.13 27.5 81.5 23 4.5 40.2 27.77 1.093
18:22 1021 30.15 851 25.13 27.6 81.6 26 6.8 44.3 27.78 1.094
18:23 1021 30.15 851 25.13 27.4 81.3 25 6.1 43 27.61 1.087
18:24 1021 30.15 851 25.13 27.2 81 24 5.2 41.4 27.48 1.082
18:25 1021 30.15 851 25.13 27.2 80.9 26 6.2 43.2 27.46 1.081
18:26 1021 30.15 851 25.13 27.2 81 22 4 39.3 27.48 1.082
18:27 1021 30.15 850 25.1 27.2 81 26 6.2 43.1 27.53 1.084
18:28 1021 30.15 850 25.1 27.3 81.2 26 6.7 44 27.64 1.088
18:29 1021 30.15 850 25.1 27.4 81.4 25 5.8 42.4 27.65 1.089
18:30 1021 30.15 850 25.1 27.4 81.3 24 5.4 41.8 27.49 1.082
18:31 1021 30.15 850 25.1 27.3 81.1 23 4.8 40.7 27.38 1.078
18:32 1021 30.15 850 25.1 27.2 81 24 5.1 41.3 27.3 1.075
18:33 1021 30.15 851 25.13 27.3 81.1 24 5.5 41.9 27.33 1.076
18:34 1021 30.15 851 25.13 27.3 81.2 27 7.2 45 27.36 1.077
18:35 1021 30.15 851 25.13 27.2 81 26 6.2 43.2 27.39 1.078
18:36 1021 30.15 851 25.13 27.3 81.1 25 6.1 43 27.47 1.081
18:37 1021 30.15 851 25.13 27.3 81.1 25 5.6 42 27.5 1.083
18:38 1021 30.15 851 25.13 27.3 81.1 26 6.4 43.5 27.46 1.081
18:39 1021 30.15 851 25.13 27.3 81.1 27 6.9 44.3 27.45 1.081
18:40 1021 30.15 851 25.13 27.4 81.3 23 4.7 40.5 27.42 1.08
18:41 1021 30.15 851 25.13 27.5 81.5 25 5.9 42.6 27.52 1.083
18:42 1021 30.15 851 25.13 27.5 81.6 22 4.2 39.6 27.61 1.087
18:43 1021 30.15 851 25.13 27.5 81.6 24 5.4 41.8 27.66 1.089
18:44 1021 30.15 851 25.13 27.5 81.5 25 5.9 42.6 27.73 1.092
18:45 1021 30.15 851 25.13 27.5 81.5 25 6.2 43.2 27.81 1.095
18:46 1021 30.15 850 25.1 27.6 81.6 23 5 40.9 27.86 1.097
18:47 1021 30.15 851 25.13 27.7 81.8 24 5.7 42.2 28.01 1.103
18:48 1021 30.15 851 25.13 27.8 82 24 5.4 41.7 28.11 1.107
18:49 1021 30.15 851 25.13 27.9 82.2 22 4.7 40.4 28.2 1.11
18:50 1021 30.15 851 25.13 27.9 82.3 26 6.9 44.5 28.21 1.111
18:51 1021 30.15 851 25.13 28 82.3 22 4.4 39.9 28.14 1.108
18:52 1021 30.15 851 25.13 28 82.4 22 4.4 39.9 28.01 1.103
18:53 1021 30.15 850 25.1 28 82.4 22 4.5 40.1 27.97 1.101
18:54 1021 30.15 850 25.1 28 82.3 20 3.5 38.4 27.93 1.1
18:55 1021 30.15 851 25.13 28 82.3 22 4.5 40.1 27.95 1.1
18:56 1021 30.15 850 25.1 27.9 82.2 20 3.5 38.3 27.92 1.099
18:57 1021 30.15 851 25.13 27.8 82.1 21 4 39.3 27.94 1.1
18:58 1021 30.15 851 25.13 27.9 82.2 23 5 41.1 28.01 1.103
18:59 1021 30.15 850 25.1 27.9 82.2 23 5.2 41.3 27.99 1.102
19:00 1021 30.15 850 25.1 27.9 82.2 24 5.7 42.2 27.94 1.1
19:01 1021 30.15 850 25.1 27.8 82 28 7.9 46.1 27.83 1.096
19:02 1021 30.15 850 25.1 27.7 81.9 26 6.6 43.8 27.94 1.1
19:03 1021 30.15 850 25.1 27.8 82 20 2.8 37 27.94 1.1
19:04 1021 30.15 850 25.1 27.8 82 21 3.5 38.2 27.9 1.098
19:05 1021 30.15 850 25.1 27.9 82.1 20 3.2 37.7 28.03 1.104
19:06 1021 30.15 850 25.1 28 82.3 22 4.4 39.8 28.22 1.111
19:07 1021 30.15 850 25.1 28.2 82.7 22 4.6 40.2 28.35 1.116
19:08 1021 30.15 850 25.1 28.1 82.6 23 5.1 41.1 28.27 1.113
19:09 1021 30.15 850 25.1 28 82.4 21 3.9 39 28.09 1.106
19:10 1021 30.15 850 25.1 27.9 82.1 27 7.3 45.1 27.96 1.101
19:11 1021 30.15 850 25.1 27.8 82 23 5.2 41.4 27.87 1.097
19:12 1021 30.15 850 25.1 27.7 81.9 25 6.4 43.5 27.88 1.098
19:13 1021 30.15 850 25.1 27.7 81.9 28 7.9 46.2 27.83 1.096
19:14 1021 30.15 850 25.1 27.9 82.2 23 5 40.9 27.83 1.096
19:15 1021 30.15 850 25.1 27.9 82.2 27 7.2 45 27.85 1.096
19:16 1021 30.15 850 25.1 28 82.5 25 6.4 43.5 27.94 1.1
19:17 1021 30.15 850 25.1 28.2 82.8 28 8.3 46.9 28.1 1.106
19:18 1021 30.15 850 25.1 28.4 83.2 27 7.8 46 28.24 1.112
19:19 1021 30.15 850 25.1 28.6 83.5 22 5 41 28.39 1.118
19:20 1021 30.15 850 25.1 28.7 83.7 23 6.1 43 28.52 1.123
19:21 1021 30.15 850 25.1 28.8 83.8 22 5.3 41.6 28.6 1.126
19:22 1021 30.15 850 25.1 28.8 83.8 24 6.5 43.6 28.7 1.13
19:23 1021 30.15 850 25.1 28.8 83.9 19 3 37.4 28.78 1.133
19:24 1021 30.15 850 25.1 28.9 83.9 19 3.3 38 28.84 1.135
19:25 1021 30.15 850 25.1 29 84.1 23 5.9 42.6 28.98 1.141
19:26 1021 30.15 850 25.1 29.2 84.5 21 5 40.9 29.22 1.15
19:27 1021 30.15 850 25.1 29.4 84.8 30 10.1 50.3 29.44 1.159
19:28 1021 30.15 850 25.1 29.1 84.3 31 10.5 51 29.3 1.154
19:29 1021 30.15 850 25.1 28.5 83.3 26 7.2 44.9 28.87 1.137
19:30 1021 30.15 850 25.1 28.1 82.6 30 9.4 48.8 28.4 1.118
19:31 1021 30.15 850 25.1 27.7 81.9 34 10.5 51 28.14 1.108
19:32 1021 30.15 850 25.1 27.4 81.2 36 11.4 52.6 27.74 1.092
19:33 1021 30.15 850 25.1 27 80.6 35 10.6 51.2 27.42 1.08
19:34 1021 30.15 850 25.1 26.7 80.1 37 11.2 52.2 27.17 1.07
19:35 1021 30.15 850 25.1 26.5 79.8 36 10.3 50.6 26.93 1.06
19:36 1021 30.15 850 25.1 26.4 79.5 34 9.4 48.9 26.79 1.055
19:37 1021 30.15 850 25.1 26.3 79.4 29 7.1 44.8 26.71 1.052
19:38 1021 30.15 850 25.1 26.3 79.4 29 7 44.6 26.63 1.048
19:39 1021 30.15 850 25.1 26.3 79.4 32 8.7 47.7 26.67 1.05
19:40 1021 30.15 850 25.1 26.2 79.2 34 9.4 48.8 26.66 1.05
19:41 1021 30.15 850 25.1 26.2 79.1 31 8 46.4 26.56 1.046
19:42 1021 30.15 850 25.1 26.1 79 31 8 46.4 26.53 1.044
19:43 1021 30.15 850 25.1 26.1 78.9 33 8.8 47.8 26.48 1.043
19:44 1021 30.15 850 25.1 26 78.8 33 8.9 48 26.37 1.038
19:45 1021 30.15 850 25.1 26 78.7 29 6.7 44 26.34 1.037
19:46 1021 30.15 850 25.1 26 78.7 32 8.4 47 26.31 1.036
19:47 1021 30.15 850 25.1 25.9 78.6 36 9.8 49.6 26.27 1.034
19:48 1021 30.15 850 25.1 25.8 78.5 32 8.2 46.7 26.18 1.031
19:49 1021 30.15 850 25.1 25.8 78.4 35 9.5 49.2 26.13 1.029
19:50 1021 30.15 850 25.1 25.7 78.2 35 9.3 48.7 26.1 1.028
19:51 1021 30.15 850 25.1 25.6 78.1 33 8.3 46.9 25.98 1.023
19:52 1021 30.15 850 25.1 25.6 78 38 10.5 50.9 25.96 1.022
19:53 1021 30.15 850 25.1 25.4 77.8 39 10.6 51.1 25.82 1.017
19:54 1021 30.15 850 25.1 25.3 77.5 35 8.8 47.9 25.69 1.011
19:55 1021 30.15 850 25.1 25.3 77.5 33 8.2 46.7 25.6 1.008
19:56 1021 30.15 850 25.1 25.3 77.5 33 8.2 46.7 25.61 1.008
19:57 1021 30.15 850 25.1 25.3 77.6 33 8 46.3 25.62 1.009
19:58 1021 30.15 850 25.1 25.3 77.6 32 7.6 45.7 25.65 1.01
19:59 1021 30.15 850 25.1 25.3 77.6 32 7.7 45.8 25.68 1.011
20:00 1021 30.15 850 25.1 25.3 77.6 33 8.3 46.9 25.67 1.011
20:01 1021 30.15 850 25.1 25.3 77.5 35 8.7 47.7 25.62 1.009
20:02 1021 30.15 850 25.1 25.2 77.4 32 7.8 46 25.52 1.005
20:03 1021 30.15 850 25.1 25.2 77.4 34 8.5 47.3 25.53 1.005
20:04 1021 30.15 850 25.1 25.2 77.3 39 10.3 50.5 25.49 1.004
20:05 1021 30.15 850 25.1 25 77 37 9.5 49.2 25.39 1
20:06 1021 30.15 850 25.1 24.9 76.9 36 9.2 48.6 25.29 0.996
20:07 1021 30.15 850 25.1 24.8 76.7 37 9.4 48.9 25.17 0.991
20:08 1021 30.15 850 25.1 24.8 76.6 38 9.7 49.4 25.14 0.99
20:09 1021 30.15 850 25.1 24.7 76.4 38 9.7 49.4 25.04 0.986
20:10 1021 30.15 850 25.1 24.6 76.3 36 8.9 48.1 24.95 0.982
20:11 1021 30.15 850 25.1 24.6 76.3 33 7.5 45.5 24.89 0.98
20:12 1021 30.15 850 25.1 24.6 76.3 39 10 50 24.95 0.982
20:13 1021 30.15 850 25.1 24.6 76.2 40 10.1 50.2 24.89 0.98
20:14 1021 30.15 850 25.1 24.4 75.9 39 9.8 49.6 24.66 0.971
20:15 1021 30.15 850 25.1 24.3 75.7 36 8.7 47.6 24.52 0.965
20:16 1021 30.15 850 25.1 24.2 75.6 36 8.5 47.2 24.51 0.965
20:17 1021 30.15 850 25.1 24.2 75.6 41 10.2 50.4 24.45 0.963
20:18 1021 30.15 850 25.1 24 75.3 39 9.6 49.3 24.3 0.957
20:19 1021 30.15 850 25.1 23.9 75.1 41 10 49.9 24.16 0.951
20:20 1021 30.15 850 25.1 23.8 74.9 44 11 51.7 24.09 0.948
20:21 1021 30.15 850 25.1 23.5 74.4 47 11.7 53.1 23.87 0.94
20:22 1021 30.15 850 25.1 23.2 73.7 47 11.4 52.6 23.5 0.925
20:23 1021 30.15 850 25.1 22.9 73.2 48 11.5 52.7 23.16 0.912
20:24 1021 30.15 850 25.1 22.7 72.9 48 11.3 52.3 22.95 0.904
20:25 1021 30.15 850 25.1 22.5 72.5 50 11.6 53 22.79 0.897
20:26 1021 30.15 850 25.1 22.3 72.1 51 11.7 53.1 22.54 0.887
20:27 1021 30.15 850 25.1 21.9 71.5 51 11.3 52.4 22.24 0.876
20:28 1021 30.15 850 25.1 21.7 71.1 52 11.5 52.7 21.93 0.863
20:29 1021 30.15 850 25.1 21.4 70.5 53 11.6 52.9 21.68 0.854
20:30 1021 30.15 850 25.1 21.2 70.1 54 11.6 52.9 21.43 0.844
20:31 1021 30.15 850 25.1 20.9 69.7 52 11 51.7 21.15 0.833
20:32 1021 30.15 850 25.1 20.9 69.5 49 10 50 21.04 0.828
20:33 1021 30.15 850 25.1 20.9 69.7 52 10.7 51.3 21.13 0.832
20:34 1021 30.15 850 25.1 20.9 69.6 53 11.2 52.1 21.06 0.829
20:35 1021 30.15 850 25.1 20.7 69.3 53 11 51.8 20.96 0.825
20:36 1021 30.15 850 25.1 20.6 69.1 54 11.2 52.2 20.83 0.82
20:37 1021 30.15 850 25.1 20.4 68.8 55 11.3 52.4 20.65 0.813
20:38 1021 30.15 850 25.1 20.2 68.3 57 11.4 52.5 20.36 0.802
20:39 1021 30.15 850 25.1 19.9 67.8 55 10.6 51.1 20.16 0.794
20:40 1021 30.15 850 25.1 19.9 67.8 56 10.9 51.6 20.14 0.793
20:41 1021 30.15 850 25.1 19.8 67.6 57 11.1 52 20.01 0.788
20:42 1021 30.15 850 25.1 19.5 67.1 58 11.2 52.2 19.69 0.775
20:43 1021 30.15 850 25.1 19.2 66.5 61 11.5 52.7 19.38 0.763
20:44 1021 30.15 850 25.1 18.7 65.7 62 11.5 52.7 19.02 0.749
20:45 1021 30.15 850 25.1 18.5 65.3 63 11.4 52.5 18.81 0.741
20:46 1021 30.15 850 25.1 18.5 65.2 63 11.4 52.6 18.8 0.74
20:47 1021 30.15 850 25.1 18.5 65.3 63 11.5 52.7 18.85 0.742
20:48 1021 30.15 850 25.1 18.5 65.4 63 11.5 52.8 18.79 0.74
20:49 1021 30.15 850 25.1 18.4 65 63 11.2 52.2 18.72 0.737
20:50 1021 30.15 850 25.1 18.3 64.9 62 10.9 51.7 18.62 0.733
20:51 1021 30.15 850 25.1 18.3 64.9 61 10.7 51.3 18.55 0.73
20:52 1021 30.15 850 25.1 18.2 64.8 62 10.8 51.5 18.61 0.733
20:53 1021 30.15 850 25.1 18.1 64.6 63 11 51.8 18.46 0.727
20:54 1021 30.15 850 25.1 17.9 64.1 64 11.1 52 18.21 0.717
20:55 1021 30.15 850 25.1 17.5 63.5 65 10.9 51.7 17.8 0.701
20:56 1021 30.15 850 25.1 17.1 62.8 66 10.8 51.4 17.5 0.689
20:57 1021 30.15 850 25.1 16.9 62.5 66 10.7 51.3 17.3 0.681
20:58 1021 30.15 850 25.1 16.7 62.1 67 10.7 51.3 17.12 0.674
20:59 1021 30.15 850 25.1 16.7 62 68 10.8 51.5 17.02 0.67
21:00 1021 30.15 850 25.1 16.5 61.7 68 10.6 51.1 16.83 0.663
21:01 1021 30.15 850 25.1 16.3 61.3 69 10.6 51 16.61 0.654
21:02 1021 30.15 850 25.1 16 60.9 70 10.6 51 16.42 0.646
21:03 1021 30.15 850 25.1 15.8 60.4 71 10.7 51.2 16.16 0.636
21:04 1021 30.15 850 25.1 15.5 60 73 10.8 51.4 15.94 0.628
21:05 1021 30.15 850 25.1 15.3 59.6 74 10.8 51.4 15.73 0.619
21:06 1021 30.15 850 25.1 15.2 59.4 74 10.7 51.3 15.61 0.615
21:07 1021 30.15 850 25.1 15.1 59.2 74 10.6 51.1 15.48 0.609
21:08 1021 30.15 850 25.1 15.1 59.2 74 10.6 51.1 15.43 0.607
21:09 1021 30.15 850 25.1 15.1 59.1 74 10.6 51 15.42 0.607
21:10 1021 30.15 850 25.1 15.1 59.2 74 10.5 51 15.45 0.608
21:11 1021 30.15 850 25.1 15.1 59.1 74 10.5 50.8 15.41 0.607
21:12 1021 30.15 850 25.1 15.1 59.2 74 10.5 50.8 15.43 0.607
21:13 1021 30.15 850 25.1 15 59.1 74 10.4 50.7 15.37 0.605
21:14 1021 30.15 850 25.1 15 58.9 73 10.3 50.5 15.33 0.604
21:15 1021 30.15 850 25.1 15 59 73 10.2 50.4 15.3 0.602
21:16 1021 30.15 850 25.1 15 59 73 10.2 50.3 15.3 0.602
21:17 1021 30.15 850 25.1 15 58.9 71 9.7 49.5 15.28 0.602
21:18 1021 30.15 850 25.1 15.1 59.1 70 9.6 49.3 15.37 0.605
21:19 1021 30.15 850 25.1 15.1 59.1 69 9.4 49 15.41 0.607
21:20 1021 30.15 850 25.1 15.2 59.3 68 9.3 48.7 15.44 0.608
21:21 1021 30.15 850 25.1 15.2 59.4 67 9.2 48.5 15.52 0.611
21:22 1021 30.15 850 25.1 15.3 59.5 66 9.1 48.5 15.6 0.614
21:23 1021 30.15 851 25.13 15.3 59.5 67 9.2 48.6 15.6 0.614
21:24 1021 30.15 850 25.1 15.2 59.4 67 9.2 48.6 15.51 0.611
21:25 1021 30.15 850 25.1 15 59.1 68 9.2 48.5 15.35 0.604
21:26 1021 30.15 851 25.13 14.9 58.8 68 9.1 48.5 15.22 0.599
21:27 1021 30.15 851 25.13 14.7 58.5 69 9.2 48.5 15.11 0.595
21:28 1021 30.15 851 25.13 14.6 58.3 69 9.1 48.3 14.93 0.588
21:29 1021 30.15 851 25.13 14.5 58.1 69 8.9 48.1 14.87 0.585
21:30 1021 30.15 851 25.13 14.6 58.2 69 8.9 48 14.91 0.587
21:31 1021 30.15 851 25.13 14.6 58.2 68 8.8 47.8 14.91 0.587
21:32 1021 30.15 851 25.13 14.6 58.3 67 8.6 47.5 14.93 0.588
21:33 1021 30.15 851 25.13 14.8 58.6 67 8.7 47.6 15.07 0.593
21:34 1021 30.15 851 25.13 15 59 65 8.4 47.2 15.25 0.6
21:35 1021 30.15 851 25.13 15.2 59.3 64 8.4 47.1 15.46 0.609
21:36 1021 30.15 851 25.13 15.4 59.7 62 8.3 47 15.59 0.614
21:37 1021 30.15 851 25.13 15.5 59.8 62 8.3 46.9 15.69 0.618
21:38 1021 30.15 851 25.13 15.4 59.7 62 8.2 46.7 15.67 0.617
21:39 1021 30.15 851 25.13 15.3 59.5 62 8.1 46.5 15.55 0.612
21:40 1021 30.15 851 25.13 15.2 59.3 61 7.8 46 15.44 0.608
21:41 1021 30.15 851 25.13 15.2 59.3 61 7.8 46.1 15.46 0.609
21:42 1021 30.15 851 25.13 15.3 59.5 63 8.3 46.9 15.59 0.614
21:43 1021 30.15 851 25.13 15.4 59.6 63 8.3 47 15.71 0.619
21:44 1021 30.15 851 25.13 15.5 59.9 63 8.4 47.2 15.83 0.623
21:45 1021 30.15 851 25.13 15.6 60 62 8.3 47 15.89 0.626
21:46 1021 30.15 851 25.13 15.7 60.2 61 8.3 47 16 0.63
21:47 1021 30.15 851 25.13 15.8 60.4 61 8.3 47 16.09 0.633
21:48 1022 30.18 851 25.13 15.9 60.6 61 8.4 47 16.21 0.638
21:49 1022 30.18 851 25.13 16 60.8 61 8.4 47.2 16.31 0.642
21:50 1022 30.18 851 25.13 16 60.8 61 8.6 47.4 16.31 0.642
21:51 1022 30.18 851 25.13 16 60.8 61 8.5 47.3 16.27 0.641
21:52 1022 30.18 851 25.13 16 60.8 61 8.7 47.6 16.33 0.643
21:53 1022 30.18 851 25.13 16 60.7 61 8.6 47.4 16.29 0.641
21:54 1022 30.18 851 25.13 15.9 60.6 61 8.6 47.4 16.19 0.637
21:55 1022 30.18 851 25.13 15.9 60.5 61 8.4 47.2 16.12 0.635
21:56 1022 30.18 851 25.13 15.8 60.4 61 8.3 46.9 16.12 0.635
21:57 1022 30.18 851 25.13 15.9 60.5 60 8.2 46.7 16.14 0.635
21:58 1022 30.18 851 25.13 15.8 60.5 59 7.9 46.2 16.18 0.637
21:59 1022 30.18 851 25.13 15.9 60.7 58 7.8 46 16.22 0.639
22:00 1022 30.18 851 25.13 16 60.7 58 7.7 45.9 16.22 0.639
22:01 1022 30.18 851 25.13 16 60.8 57 7.5 45.6 16.29 0.641
22:02 1022 30.18 851 25.13 16 60.8 57 7.5 45.5 16.25 0.64
22:03 1022 30.18 851 25.13 16 60.8 56 7.2 45 16.31 0.642
22:04 1022 30.18 851 25.13 16.1 61 54 7 44.6 16.42 0.646
22:05 1022 30.18 851 25.13 16.3 61.3 54 7.1 44.8 16.58 0.653
22:06 1022 30.18 851 25.13 16.4 61.5 55 7.4 45.3 16.67 0.656
22:07 1022 30.18 851 25.13 16.4 61.5 54 7.1 44.8 16.6 0.654
22:08 1022 30.18 851 25.13 16.5 61.6 52 6.8 44.2 16.69 0.657
22:09 1022 30.18 851 25.13 16.6 61.9 52 6.8 44.3 16.86 0.664
22:10 1022 30.18 851 25.13 16.8 62.2 51 6.7 44.1 17.06 0.672
22:11 1022 30.18 851 25.13 17.1 62.9 49 6.4 43.5 17.39 0.685
22:12 1022 30.18 851 25.13 17.4 63.4 48 6.5 43.7 17.67 0.696
22:13 1022 30.18 851 25.13 17.7 63.9 48 6.5 43.8 17.88 0.704
22:14 1022 30.18 851 25.13 17.9 64.2 47 6.7 44 18.08 0.712
22:15 1022 30.18 851 25.13 17.9 64.2 48 6.9 44.4 18.16 0.715
22:16 1022 30.18 851 25.13 17.8 64.1 49 7 44.6 18.1 0.713
22:17 1022 30.18 851 25.13 17.6 63.7 51 7.4 45.3 17.88 0.704
22:18 1022 30.18 851 25.13 17.3 63.2 50 6.9 44.4 17.61 0.693
22:19 1022 30.18 851 25.13 17.2 63 49 6.5 43.7 17.52 0.69
22:20 1022 30.18 851 25.13 17.3 63.1 48 6.3 43.4 17.57 0.692
22:21 1022 30.18 851 25.13 17.3 63.2 47 6.1 43.1 17.61 0.693
22:22 1022 30.18 851 25.13 17.3 63.2 48 6.4 43.5 17.63 0.694
22:23 1022 30.18 851 25.13 17.2 63 49 6.4 43.6 17.54 0.691
22:24 1022 30.18 851 25.13 17.1 62.8 49 6.5 43.7 17.43 0.686
22:25 1022 30.18 851 25.13 17 62.6 49 6.3 43.4 17.36 0.683
22:26 1022 30.18 851 25.13 17 62.6 49 6.4 43.6 17.34 0.683
22:27 1022 30.18 851 25.13 17.1 62.7 50 6.7 44 17.35 0.683
22:28 1022 30.18 851 25.13 17 62.6 51 6.9 44.4 17.25 0.679
22:29 1022 30.18 851 25.13 16.8 62.2 51 6.7 44 17.07 0.672
22:30 1022 30.18 851 25.13 16.8 62.2 51 6.7 44.1 17.1 0.673
22:31 1022 30.18 851 25.13 16.8 62.3 51 6.7 44 17.15 0.675
22:32 1022 30.18 851 25.13 16.9 62.4 51 6.7 44 17.21 0.678
22:33 1022 30.18 851 25.13 16.9 62.5 51 6.9 44.4 17.21 0.678
22:34 1022 30.18 851 25.13 16.8 62.3 52 7.1 44.8 17.06 0.672
22:35 1022 30.18 851 25.13 16.6 61.9 53 7.1 44.8 16.89 0.665
22:36 1022 30.18 851 25.13 16.4 61.5 54 7.3 45.1 16.71 0.658
22:37 1022 30.18 851 25.13 16.2 61.1 55 7.3 45.1 16.47 0.648
22:38 1022 30.18 851 25.13 16 60.7 56 7.2 44.9 16.31 0.642
22:39 1022 30.18 851 25.13 15.8 60.5 54 6.7 44 16.19 0.637
22:40 1022 30.18 851 25.13 15.8 60.5 55 6.8 44.2 16.16 0.636
22:41 1022 30.18 851 25.13 15.7 60.3 55 6.9 44.5 16.03 0.631
22:42 1022 30.18 851 25.13 15.5 60 56 6.8 44.2 15.88 0.625
22:43 1022 30.18 851 25.13 15.4 59.7 57 7 44.5 15.78 0.621
22:44 1022 30.18 851 25.13 15.3 59.5 57 6.8 44.3 15.63 0.615
22:45 1022 30.18 851 25.13 15.2 59.4 58 7 44.6 15.61 0.615
22:46 1022 30.18 851 25.13 15.1 59.3 58 7 44.6 15.48 0.609
22:47 1022 30.18 851 25.13 15 59 58 7 44.6 15.39 0.606
22:48 1022 30.18 851 25.13 14.9 58.8 57 6.7 44 15.31 0.603
22:49 1022 30.18 851 25.13 15 59 56 6.5 43.7 15.36 0.605
22:50 1022 30.18 851 25.13 15.3 59.5 55 6.4 43.5 15.55 0.612
22:51 1022 30.18 851 25.13 15.5 60 54 6.4 43.5 15.78 0.621
22:52 1022 30.18 851 25.13 15.8 60.4 54 6.6 43.9 16 0.63
22:53 1022 30.18 851 25.13 15.9 60.7 53 6.6 43.8 16.13 0.635
22:54 1022 30.18 851 25.13 16 60.9 53 6.6 43.9 16.25 0.64
22:55 1022 30.18 851 25.13 16.1 61 54 6.8 44.2 16.33 0.643
22:56 1022 30.18 851 25.13 16.1 61 53 6.7 44.1 16.34 0.643
22:57 1022 30.18 851 25.13 16.1 60.9 55 7 44.6 16.33 0.643
22:58 1022 30.18 851 25.13 15.9 60.6 55 7.1 44.7 16.19 0.637
22:59 1022 30.18 851 25.13 15.6 60.1 57 7.2 44.9 15.91 0.626
23:00 1022 30.18 851 25.13 15.3 59.5 57 6.8 44.2 15.59 0.614
23:01 1022 30.18 851 25.13 15.2 59.3 58 7 44.5 15.46 0.609
23:02 1022 30.18 851 25.13 15 59 58 6.8 44.2 15.3 0.602
23:03 1022 30.18 851 25.13 14.9 58.9 58 6.8 44.3 15.23 0.6
23:04 1022 30.18 851 25.13 14.9 58.7 58 6.7 44 15.14 0.596
23:05 1022 30.18 851 25.13 15 58.9 57 6.6 43.8 15.23 0.6
23:06 1022 30.18 851 25.13 15.1 59.2 58 6.9 44.4 15.34 0.604
23:07 1022 30.18 851 25.13 14.9 58.9 57 6.6 44 15.21 0.599
23:08 1022 30.18 851 25.13 15 58.9 56 6.4 43.6 15.24 0.6
23:09 1022 30.18 851 25.13 15.1 59.1 57 6.6 43.9 15.3 0.602
23:10 1022 30.18 851 25.13 15.1 59.2 56 6.5 43.6 15.34 0.604
23:11 1022 30.18 851 25.13 15.2 59.3 54 5.9 42.6 15.43 0.607
23:12 1022 30.18 851 25.13 15.5 59.8 52 5.7 42.3 15.64 0.616
23:13 1022 30.18 851 25.13 15.6 60.1 54 6.4 43.5 15.73 0.619
23:14 1022 30.18 851 25.13 15.5 59.8 55 6.6 43.9 15.7 0.618
23:15 1022 30.18 851 25.13 15.3 59.5 56 6.7 44.1 15.58 0.613
23:16 1022 30.18 851 25.13 15 59.1 58 6.8 44.3 15.44 0.608
23:17 1022 30.18 851 25.13 14.8 58.6 57 6.3 43.3 15.23 0.6
23:18 1022 30.18 851 25.13 14.8 58.6 56 6.1 43 15.13 0.596
23:19 1022 30.18 851 25.13 15 59 53 5.6 42.1 15.26 0.601
23:20 1022 30.18 851 25.13 15.2 59.4 53 5.9 42.7 15.42 0.607
23:21 1022 30.18 851 25.13 15.4 59.6 53 6 42.8 15.55 0.612
23:22 1022 30.18 851 25.13 15.5 59.9 52 5.7 42.3 15.74 0.62
23:23 1022 30.18 851 25.13 15.8 60.4 51 5.7 42.3 15.97 0.629
23:24 1022 30.18 851 25.13 16 60.8 49 5.4 41.8 16.2 0.638
23:25 1022 30.18 851 25.13 16.2 61.1 51 6 42.8 16.32 0.643
23:26 1022 30.18 851 25.13 15.9 60.7 53 6.6 43.8 16.12 0.635
23:27 1022 30.18 851 25.13 15.5 60 54 6.4 43.6 15.82 0.623
23:28 1022 30.18 851 25.13 15.3 59.6 55 6.6 43.8 15.58 0.613
23:29 1022 30.18 851 25.13 15.1 59.2 56 6.5 43.8 15.39 0.606
23:30 1022 30.18 851 25.13 15 58.9 57 6.6 43.9 15.25 0.6
23:31 1022 30.18 851 25.13 14.8 58.6 57 6.5 43.7 15.03 0.592
23:32 1022 30.18 851 25.13 14.7 58.4 57 6.3 43.4 14.95 0.589
23:33 1022 30.18 851 25.13 14.6 58.3 58 6.5 43.8 14.9 0.587
23:34 1022 30.18 851 25.13 14.4 58 59 6.5 43.8 14.63 0.576
23:35 1022 30.18 851 25.13 14.2 57.5 59 6.5 43.6 14.43 0.568
23:36 1022 30.18 851 25.13 14 57.3 58 6 42.8 14.41 0.567
23:37 1022 30.18 851 25.13 14.1 57.4 57 5.9 42.5 14.54 0.572
23:38 1022 30.18 851 25.13 14.3 57.7 56 5.6 42.1 14.77 0.581
23:39 1022 30.18 851 25.13 14.5 58.2 54 5.4 41.7 14.93 0.588
23:40 1022 30.18 851 25.13 14.9 58.9 52 5.4 41.6 15.16 0.597
23:41 1022 30.18 851 25.13 15.4 59.8 51 5.4 41.7 15.55 0.612
23:42 1022 30.18 851 25.13 15.7 60.3 50 5.5 41.8 15.86 0.624
23:43 1022 30.18 851 25.13 15.9 60.5 50 5.6 42 16.06 0.632
23:44 1022 30.18 851 25.13 15.9 60.6 51 5.7 42.3 16.08 0.633
23:45 1022 30.18 851 25.13 15.8 60.5 51 5.8 42.5 16.04 0.631
23:46 1022 30.18 851 25.13 15.7 60.2 53 6.2 43.1 15.87 0.625
23:47 1022 30.18 851 25.13 15.3 59.5 54 6.2 43.2 15.5 0.61
23:48 1022 30.18 851 25.13 14.9 58.9 56 6.3 43.3 15.19 0.598
23:49 1022 30.18 851 25.13 14.7 58.4 57 6.3 43.3 14.98 0.59
23:50 1022 30.18 851 25.13 14.5 58.1 58 6.5 43.7 14.85 0.585
23:51 1022 30.18 851 25.13 14.2 57.5 60 6.5 43.7 14.56 0.573
23:52 1022 30.18 851 25.13 14 57.3 60 6.6 43.8 14.38 0.566
23:53 1022 30.18 851 25.13 13.9 57 61 6.5 43.8 14.23 0.56
23:54 1022 30.18 851 25.13 13.8 56.9 60 6.2 43.2 14.17 0.558
23:55 1022 30.18 851 25.13 14 57.1 60 6.5 43.6 14.25 0.561
23:56 1022 30.18 851 25.13 13.9 56.9 61 6.6 43.8 14.18 0.558
23:57 1022 30.18 851 25.13 13.7 56.7 62 6.6 43.9 14.06 0.554
23:58 1022 30.18 851 25.13 13.5 56.3 63 6.6 43.8 13.84 0.545
23:59 1022 30.18 851 25.13 13.3 55.9 64 6.7 44 13.64 0.537
24:00 1022 30.18 851 25.13 13 55.4 65 6.7 44.1 13.36 0.526